Observation data for Smyer on 02/24/2021      Previous  Date  Next       Current Mesonet Observations  Soil Data  Daily Summary Page  Observations in Plain Language
KSM2 240600Z 26012KT 09/M11 A2988 RMK A01 T00881108  RH  024%=      5-min Rain = 0
KSM2 240601Z 26013KT 09/M11 A2988 RMK A01 T00881109  RH  024%=      5-min Rain = 0
KSM2 240602Z 26013KT 09/M11 A2988 RMK A01 T00891109  RH  023%=      5-min Rain = 0
KSM2 240603Z 26012KT 09/M11 A2988 RMK A01 T00891109  RH  023%=      5-min Rain = 0
KSM2 240604Z 26012KT 09/M11 A2988 RMK A01 T00891109  RH  023%=      5-min Rain = 0
KSM2 240605Z 26011KT 09/M11 A2988 RMK A01 T00891109  RH  023%=      5-min Rain = 0
KSM2 240606Z 26012KT 09/M11 A2988 RMK A01 T00881109  RH  024%=      5-min Rain = 0
KSM2 240607Z 25012KT 09/M11 A2988 RMK A01 T00881109  RH  024%=      5-min Rain = 0
KSM2 240608Z 26011KT 09/M11 A2988 RMK A01 T00891109  RH  023%=      5-min Rain = 0
KSM2 240609Z 25012KT 09/M11 A2988 RMK A01 T00881109  RH  024%=      5-min Rain = 0
KSM2 240610Z 25012KT 09/M11 A2988 RMK A01 T00881109  RH  024%=      5-min Rain = 0
KSM2 240611Z 25012KT 09/M11 A2988 RMK A01 T00881109  RH  024%=      5-min Rain = 0
KSM2 240612Z 26012KT 09/M11 A2988 RMK A01 T00891109  RH  024%=      5-min Rain = 0
KSM2 240613Z 25012KT 09/M11 A2988 RMK A01 T00891109  RH  024%=      5-min Rain = 0
KSM2 240614Z 25011KT 09/M11 A2988 RMK A01 T00881109  RH  024%=      5-min Rain = 0
KSM2 240615Z 25011KT 09/M11 A2988 RMK A01 T00871108  RH  024%=      5-min Rain = 0
KSM2 240616Z 26011KT 09/M11 A2988 RMK A01 T00861108  RH  024%=      5-min Rain = 0
KSM2 240617Z 25011KT 09/M11 A2988 RMK A01 T00861108  RH  024%=      5-min Rain = 0
KSM2 240618Z 26011KT 09/M11 A2988 RMK A01 T00871108  RH  024%=      5-min Rain = 0
KSM2 240619Z 26011KT 09/M11 A2988 RMK A01 T00871108  RH  024%=      5-min Rain = 0
KSM2 240620Z 26011KT 09/M11 A2988 RMK A01 T00881108  RH  024%=      5-min Rain = 0
KSM2 240621Z 25011KT 09/M11 A2988 RMK A01 T00881108  RH  024%=      5-min Rain = 0
KSM2 240622Z 26011KT 09/M11 A2988 RMK A01 T00871108  RH  024%=      5-min Rain = 0
KSM2 240623Z 25011KT 09/M11 A2988 RMK A01 T00861107  RH  024%=      5-min Rain = 0
KSM2 240624Z 26010KT 09/M11 A2988 RMK A01 T00861107  RH  024%=      5-min Rain = 0
KSM2 240625Z 25011KT 09/M11 A2988 RMK A01 T00851107  RH  024%=      5-min Rain = 0
KSM2 240626Z 26011KT 09/M11 A2988 RMK A01 T00851107  RH  024%=      5-min Rain = 0
KSM2 240627Z 25011KT 09/M11 A2988 RMK A01 T00851106  RH  025%=      5-min Rain = 0
KSM2 240628Z 25010KT 08/M11 A2988 RMK A01 T00841106  RH  025%=      5-min Rain = 0
KSM2 240629Z 25011KT 08/M11 A2988 RMK A01 T00841105  RH  025%=      5-min Rain = 0
KSM2 240630Z 25010KT 08/M11 A2988 RMK A01 T00831105  RH  025%=      5-min Rain = 0
KSM2 240631Z 25010KT 08/M10 A2989 RMK A01 T00821103  RH  026%=      5-min Rain = 0
KSM2 240632Z 25010KT 08/M10 A2989 RMK A01 T00821102  RH  026%=      5-min Rain = 0
KSM2 240633Z 25011KT 08/M10 A2989 RMK A01 T00811101  RH  026%=      5-min Rain = 0
KSM2 240634Z 25010KT 08/M10 A2989 RMK A01 T00801100  RH  027%=      5-min Rain = 0
KSM2 240635Z 25010KT 08/M10 A2989 RMK A01 T00791102  RH  027%=      5-min Rain = 0
KSM2 240636Z 26009KT 08/M10 A2989 RMK A01 T00771102  RH  027%=      5-min Rain = 0
KSM2 240637Z 25010KT 08/M10 A2989 RMK A01 T00761102  RH  027%=      5-min Rain = 0
KSM2 240638Z 26010KT 08/M10 A2989 RMK A01 T00771102  RH  027%=      5-min Rain = 0
KSM2 240639Z 26010KT 08/M10 A2989 RMK A01 T00771102  RH  027%=      5-min Rain = 0
KSM2 240640Z 25010KT 08/M10 A2989 RMK A01 T00761101  RH  027%=      5-min Rain = 0
KSM2 240641Z 25010KT 07/M10 A2989 RMK A01 T00731101  RH  028%=      5-min Rain = 0
KSM2 240642Z 25010KT 07/M10 A2989 RMK A01 T00721100  RH  028%=      5-min Rain = 0
KSM2 240643Z 26009KT 07/M10 A2989 RMK A01 T00711099  RH  029%=      5-min Rain = 0
KSM2 240644Z 25010KT 07/M10 A2989 RMK A01 T00701100  RH  029%=      5-min Rain = 0
KSM2 240645Z 25010KT 07/M10 A2989 RMK A01 T00701100  RH  029%=      5-min Rain = 0
KSM2 240646Z 26009KT 07/M10 A2989 RMK A01 T00691097  RH  029%=      5-min Rain = 0
KSM2 240647Z 26009KT 07/M10 A2989 RMK A01 T00671099  RH  030%=      5-min Rain = 0
KSM2 240648Z 26010KT 07/M10 A2989 RMK A01 T00661099  RH  030%=      5-min Rain = 0
KSM2 240649Z 26010KT 07/M10 A2989 RMK A01 T00661099  RH  030%=      5-min Rain = 0
KSM2 240650Z 26010KT 07/M10 A2989 RMK A01 T00671098  RH  030%=      5-min Rain = 0
KSM2 240651Z 26010KT 07/M10 A2989 RMK A01 T00671099  RH  030%=      5-min Rain = 0
KSM2 240652Z 26010KT 07/M10 A2989 RMK A01 T00661098  RH  030%=      5-min Rain = 0
KSM2 240653Z 26010KT 07/M10 A2989 RMK A01 T00651099  RH  030%=      5-min Rain = 0
KSM2 240654Z 27010KT 07/M10 A2989 RMK A01 T00671098  RH  030%=      5-min Rain = 0
KSM2 240655Z 27009KT 07/M10 A2989 RMK A01 T00681098  RH  030%=      5-min Rain = 0
KSM2 240656Z 27009KT 07/M10 A2989 RMK A01 T00681098  RH  029%=      5-min Rain = 0
KSM2 240657Z 27009KT 07/M10 A2989 RMK A01 T00681098  RH  029%=      5-min Rain = 0
KSM2 240658Z 27009KT 07/M10 A2989 RMK A01 T00681098  RH  030%=      5-min Rain = 0
KSM2 240659Z 26009KT 07/M10 A2989 RMK A01 T00681098  RH  030%=      5-min Rain = 0
KSM2 240700Z 26009KT 07/M10 A2989 RMK A01 T00681097  RH  030%=      5-min Rain = 0
KSM2 240701Z 25008KT 06/M10 A2989 RMK A01 T00641097  RH  030%=      5-min Rain = 0
KSM2 240702Z 25008KT 06/M10 A2989 RMK A01 T00611096  RH  032%=      5-min Rain = 0
KSM2 240703Z 26009KT 06/M09 A2989 RMK A01 T00591094  RH  032%=      5-min Rain = 0
KSM2 240704Z 26010KT 06/M09 A2989 RMK A01 T00581094  RH  033%=      5-min Rain = 0
KSM2 240705Z 26010KT 06/M09 A2989 RMK A01 T00591094  RH  032%=      5-min Rain = 0
KSM2 240706Z 26010KT 06/M09 A2989 RMK A01 T00601094  RH  032%=      5-min Rain = 0
KSM2 240707Z 26011KT 06/M10 A2989 RMK A01 T00601095  RH  032%=      5-min Rain = 0
KSM2 240708Z 26011KT 06/M10 A2989 RMK A01 T00601095  RH  032%=      5-min Rain = 0
KSM2 240709Z 26010KT 06/M10 A2989 RMK A01 T00601095  RH  032%=      5-min Rain = 0
KSM2 240710Z 26011KT 06/M10 A2989 RMK A01 T00601095  RH  032%=      5-min Rain = 0
KSM2 240711Z 27011KT 06/M10 A2989 RMK A01 T00601095  RH  032%=      5-min Rain = 0
KSM2 240712Z 27011KT 06/M10 A2989 RMK A01 T00611095  RH  032%=      5-min Rain = 0
KSM2 240713Z 27011KT 06/M10 A2989 RMK A01 T00621095  RH  031%=      5-min Rain = 0
KSM2 240714Z 27011KT 06/M10 A2989 RMK A01 T00631095  RH  031%=      5-min Rain = 0
KSM2 240715Z 27010KT 06/M10 A2989 RMK A01 T00631096  RH  031%=      5-min Rain = 0
KSM2 240716Z 27010KT 06/M10 A2989 RMK A01 T00641096  RH  031%=      5-min Rain = 0
KSM2 240717Z 27010KT 07/M10 A2989 RMK A01 T00661096  RH  030%=      5-min Rain = 0
KSM2 240718Z 27010KT 07/M10 A2989 RMK A01 T00701097  RH  030%=      5-min Rain = 0
KSM2 240719Z 27009KT 08/M10 A2989 RMK A01 T00751097  RH  028%=      5-min Rain = 0
KSM2 240720Z 27009KT 08/M10 A2989 RMK A01 T00771098  RH  028%=      5-min Rain = 0
KSM2 240721Z 27010KT 08/M10 A2989 RMK A01 T00781099  RH  027%=      5-min Rain = 0
KSM2 240722Z 27010KT 08/M10 A2989 RMK A01 T00791099  RH  027%=      5-min Rain = 0
KSM2 240723Z 27011KT 08/M10 A2989 RMK A01 T00791099  RH  027%=      5-min Rain = 0
KSM2 240724Z 28011KT 08/M10 A2989 RMK A01 T00801099  RH  027%=      5-min Rain = 0
KSM2 240725Z 28010KT 08/M10 A2989 RMK A01 T00811099  RH  027%=      5-min Rain = 0
KSM2 240726Z 28010KT 08/M10 A2989 RMK A01 T00811100  RH  027%=      5-min Rain = 0
KSM2 240727Z 28011KT 08/M10 A299 RMK A01 T00811100  RH  027%=      5-min Rain = 0
KSM2 240728Z 27011KT 08/M10 A299 RMK A01 T00811100  RH  026%=      5-min Rain = 0
KSM2 240729Z 28011KT 08/M10 A299 RMK A01 T00821100  RH  026%=      5-min Rain = 0
KSM2 240730Z 28011KT 08/M10 A299 RMK A01 T00821100  RH  026%=      5-min Rain = 0
KSM2 240731Z 28012KT 08/M10 A299 RMK A01 T00831100  RH  026%=      5-min Rain = 0
KSM2 240732Z 28012KT 08/M10 A299 RMK A01 T00841100  RH  026%=      5-min Rain = 0
KSM2 240733Z 28012KT 08/M10 A299 RMK A01 T00841100  RH  026%=      5-min Rain = 0
KSM2 240734Z 28013KT 09/M10 A299 RMK A01 T00861101  RH  026%=      5-min Rain = 0
KSM2 240735Z 28013KT 09/M10 A299 RMK A01 T00871101  RH  025%=      5-min Rain = 0
KSM2 240736Z 28013KT 09/M10 A299 RMK A01 T00891101  RH  025%=      5-min Rain = 0
KSM2 240737Z 28013KT 09/M10 A299 RMK A01 T00891102  RH  025%=      5-min Rain = 0
KSM2 240738Z 28013KT 09/M10 A299 RMK A01 T00901102  RH  025%=      5-min Rain = 0
KSM2 240739Z 28015KT 09/M10 A299 RMK A01 T00911102  RH  024%=      5-min Rain = 0
KSM2 240740Z 28014KT 09/M10 A299 RMK A01 T00931102  RH  024%=      5-min Rain = 0
KSM2 240741Z 28014KT 09/M10 A299 RMK A01 T00941102  RH  024%=      5-min Rain = 0
KSM2 240742Z 28013KT 09/M10 A299 RMK A01 T00941103  RH  024%=      5-min Rain = 0
KSM2 240743Z 28014KT 09/M10 A299 RMK A01 T00931103  RH  024%=      5-min Rain = 0
KSM2 240744Z 28014KT 09/M10 A299 RMK A01 T00921103  RH  024%=      5-min Rain = 0
KSM2 240745Z 28013KT 09/M10 A299 RMK A01 T00911103  RH  024%=      5-min Rain = 0
KSM2 240746Z 28013KT 09/M10 A299 RMK A01 T00901103  RH  024%=      5-min Rain = 0
KSM2 240747Z 29013KT 09/M10 A2991 RMK A01 T00901104  RH  024%=      5-min Rain = 0
KSM2 240748Z 29014KT 09/M10 A2991 RMK A01 T00891104  RH  024%=      5-min Rain = 0
KSM2 240749Z 29013KT 09/M10 A2991 RMK A01 T00891104  RH  025%=      5-min Rain = 0
KSM2 240750Z 28013KT 09/M10 A2991 RMK A01 T00861104  RH  025%=      5-min Rain = 0
KSM2 240751Z 28014KT 09/M10 A2991 RMK A01 T00861103  RH  025%=      5-min Rain = 0
KSM2 240752Z 29014KT 09/M10 A2991 RMK A01 T00871103  RH  025%=      5-min Rain = 0
KSM2 240753Z 29014KT 09/M10 A2991 RMK A01 T00861103  RH  025%=      5-min Rain = 0
KSM2 240754Z 29013KT 09/M10 A2991 RMK A01 T00851103  RH  025%=      5-min Rain = 0
KSM2 240755Z 29014KT 08/M10 A2991 RMK A01 T00831103  RH  026%=      5-min Rain = 0
KSM2 240756Z 29013KT 08/M10 A2991 RMK A01 T00821102  RH  026%=      5-min Rain = 0
KSM2 240757Z 29013KT 08/M10 A2991 RMK A01 T00821102  RH  026%=      5-min Rain = 0
KSM2 240758Z 29013KT 08/M10 A2991 RMK A01 T00821102  RH  026%=      5-min Rain = 0
KSM2 240759Z 29013KT 08/M10 A2991 RMK A01 T00821102  RH  026%=      5-min Rain = 0
KSM2 240800Z 29013KT 08/M10 A2991 RMK A01 T00821101  RH  026%=      5-min Rain = 0
KSM2 240801Z 29014KT 08/M10 A2992 RMK A01 T00811102  RH  026%=      5-min Rain = 0
KSM2 240802Z 29013KT 08/M10 A2992 RMK A01 T00811102  RH  026%=      5-min Rain = 0
KSM2 240803Z 29013KT 08/M10 A2992 RMK A01 T00811102  RH  026%=      5-min Rain = 0
KSM2 240804Z 29014KT 08/M10 A2992 RMK A01 T00811102  RH  026%=      5-min Rain = 0
KSM2 240805Z 29014KT 08/M10 A2992 RMK A01 T00801102  RH  026%=      5-min Rain = 0
KSM2 240806Z 29015KT 08/M10 A2992 RMK A01 T00801102  RH  026%=      5-min Rain = 0
KSM2 240807Z 30014KT 08/M10 A2992 RMK A01 T00811101  RH  026%=      5-min Rain = 0
KSM2 240808Z 30014KT 08/M10 A2992 RMK A01 T00811101  RH  026%=      5-min Rain = 0
KSM2 240809Z 29014KT 08/M10 A2992 RMK A01 T00801101  RH  027%=      5-min Rain = 0
KSM2 240810Z 30014KT 08/M10 A2992 RMK A01 T00791101  RH  027%=      5-min Rain = 0
KSM2 240811Z 30014KT 08/M10 A2992 RMK A01 T00791100  RH  027%=      5-min Rain = 0
KSM2 240812Z 30015KT 08/M10 A2992 RMK A01 T00791100  RH  027%=      5-min Rain = 0
KSM2 240813Z 30014KT 08/M10 A2993 RMK A01 T00781100  RH  027%=      5-min Rain = 0
KSM2 240814Z 30014KT 08/M10 A2993 RMK A01 T00791099  RH  027%=      5-min Rain = 0
KSM2 240815Z 30013KT 08/M10 A2993 RMK A01 T00791099  RH  027%=      5-min Rain = 0
KSM2 240816Z 30014KT 08/M10 A2993 RMK A01 T00791099  RH  027%=      5-min Rain = 0
KSM2 240817Z 31015KT 08/M10 A2993 RMK A01 T00791099  RH  027%=      5-min Rain = 0
KSM2 240818Z 31014KT 08/M10 A2993 RMK A01 T00791099  RH  027%=      5-min Rain = 0
KSM2 240819Z 31013KT 08/M10 A2993 RMK A01 T00781099  RH  027%=      5-min Rain = 0
KSM2 240820Z 31013KT 08/M10 A2993 RMK A01 T00771098  RH  028%=      5-min Rain = 0
KSM2 240821Z 31013KT 08/M10 A2993 RMK A01 T00751098  RH  028%=      5-min Rain = 0
KSM2 240822Z 32013KT 07/M10 A2993 RMK A01 T00741098  RH  028%=      5-min Rain = 0
KSM2 240823Z 31012KT 07/M10 A2993 RMK A01 T00731098  RH  029%=      5-min Rain = 0
KSM2 240824Z 31012KT 07/M10 A2993 RMK A01 T00721097  RH  029%=      5-min Rain = 0
KSM2 240825Z 31012KT 07/M10 A2993 RMK A01 T00721097  RH  029%=      5-min Rain = 0
KSM2 240826Z 31012KT 07/M10 A2993 RMK A01 T00711096  RH  029%=      5-min Rain = 0
KSM2 240827Z 31011KT 07/M10 A2993 RMK A01 T00701096  RH  029%=      5-min Rain = 0
KSM2 240828Z 31012KT 07/M10 A2993 RMK A01 T00701096  RH  030%=      5-min Rain = 0
KSM2 240829Z 30011KT 07/M10 A2993 RMK A01 T00711096  RH  029%=      5-min Rain = 0
KSM2 240830Z 31011KT 07/M10 A2993 RMK A01 T00711096  RH  029%=      5-min Rain = 0
KSM2 240831Z 31011KT 07/M10 A2993 RMK A01 T00721096  RH  029%=      5-min Rain = 0
KSM2 240832Z 30011KT 07/M10 A2993 RMK A01 T00721095  RH  029%=      5-min Rain = 0
KSM2 240833Z 30011KT 07/M10 A2993 RMK A01 T00721095  RH  029%=      5-min Rain = 0
KSM2 240834Z 30010KT 07/M10 A2993 RMK A01 T00721095  RH  029%=      5-min Rain = 0
KSM2 240835Z 30010KT 07/M10 A2993 RMK A01 T00721095  RH  029%=      5-min Rain = 0
KSM2 240836Z 31011KT 07/M10 A2993 RMK A01 T00711095  RH  030%=      5-min Rain = 0
KSM2 240837Z 31011KT 07/M10 A2994 RMK A01 T00711095  RH  030%=      5-min Rain = 0
KSM2 240838Z 31012KT 07/M10 A2994 RMK A01 T00711095  RH  030%=      5-min Rain = 0
KSM2 240839Z 31012KT 07/M10 A2994 RMK A01 T00711095  RH  030%=      5-min Rain = 0
KSM2 240840Z 31013KT 07/M10 A2994 RMK A01 T00701095  RH  030%=      5-min Rain = 0
KSM2 240841Z 32014KT 07/M09 A2995 RMK A01 T00701094  RH  030%=      5-min Rain = 0
KSM2 240842Z 33014KT 07/M09 A2995 RMK A01 T00691094  RH  030%=      5-min Rain = 0
KSM2 240843Z 33015KT 07/M09 A2995 RMK A01 T00681094  RH  030%=      5-min Rain = 0
KSM2 240844Z 33015KT 07/M09 A2996 RMK A01 T00681094  RH  030%=      5-min Rain = 0
KSM2 240845Z 33016KT 07/M09 A2996 RMK A01 T00681093  RH  031%=      5-min Rain = 0
KSM2 240846Z 33017KT 07/M09 A2996 RMK A01 T00681092  RH  031%=      5-min Rain = 0
KSM2 240847Z 33018KT 07/M09 A2996 RMK A01 T00681091  RH  031%=      5-min Rain = 0
KSM2 240848Z 33017KT 07/M09 A2996 RMK A01 T00681091  RH  031%=      5-min Rain = 0
KSM2 240849Z 33017KT 07/M09 A2996 RMK A01 T00691091  RH  031%=      5-min Rain = 0
KSM2 240850Z 33017KT 07/M09 A2996 RMK A01 T00701090  RH  031%=      5-min Rain = 0
KSM2 240851Z 33017KT 07/M09 A2996 RMK A01 T00691090  RH  031%=      5-min Rain = 0
KSM2 240852Z 33016KT 07/M09 A2996 RMK A01 T00691090  RH  031%=      5-min Rain = 0
KSM2 240853Z 33017KT 07/M09 A2996 RMK A01 T00681090  RH  031%=      5-min Rain = 0
KSM2 240854Z 33018KT 07/M09 A2996 RMK A01 T00681089  RH  031%=      5-min Rain = 0
KSM2 240855Z 33018KT 07/M09 A2996 RMK A01 T00691089  RH  031%=      5-min Rain = 0
KSM2 240856Z 33019KT 07/M09 A2996 RMK A01 T00691088  RH  032%=      5-min Rain = 0
KSM2 240857Z 33020KT 07/M09 A2996 RMK A01 T00711086  RH  032%=      5-min Rain = 0
KSM2 240858Z 33018KT 07/M08 A2996 RMK A01 T00731084  RH  032%=      5-min Rain = 0
KSM2 240859Z 33018KT 07/M08 A2997 RMK A01 T00741083  RH  032%=      5-min Rain = 0
KSM2 240900Z 33018KT 07/M08 A2997 RMK A01 T00731083  RH  032%=      5-min Rain = 0
KSM2 240901Z 34016KT 07/M08 A2997 RMK A01 T00721083  RH  032%=      5-min Rain = 0
KSM2 240902Z 34018KT 07/M08 A2997 RMK A01 T00711083  RH  033%=      5-min Rain = 0
KSM2 240903Z 34018KT 07/M08 A2997 RMK A01 T00711081  RH  033%=      5-min Rain = 0
KSM2 240904Z 34017KT 07/M08 A2997 RMK A01 T00721080  RH  033%=      5-min Rain = 0
KSM2 240905Z 34017KT 07/M08 A2997 RMK A01 T00721078  RH  033%=      5-min Rain = 0
KSM2 240906Z 34017KT 07/M08 A2997 RMK A01 T00731076  RH  034%=      5-min Rain = 0
KSM2 240907Z 34016KT 07/M08 A2997 RMK A01 T00731075  RH  034%=      5-min Rain = 0
KSM2 240908Z 34016KT 07/M07 A2997 RMK A01 T00731074  RH  034%=      5-min Rain = 0
KSM2 240909Z 34016KT 07/M07 A2997 RMK A01 T00731073  RH  035%=      5-min Rain = 0
KSM2 240910Z 34016KT 07/M07 A2997 RMK A01 T00731071  RH  035%=      5-min Rain = 0
KSM2 240911Z 34014KT 07/M07 A2998 RMK A01 T00741069  RH  035%=      5-min Rain = 0
KSM2 240912Z 35016KT 07/M07 A2998 RMK A01 T00741068  RH  036%=      5-min Rain = 0
KSM2 240913Z 35017KT 07/M07 A2998 RMK A01 T00731067  RH  036%=      5-min Rain = 0
KSM2 240914Z 35016KT 07/M07 A2998 RMK A01 T00731066  RH  037%=      5-min Rain = 0
KSM2 240915Z 35017KT 07/M07 A2998 RMK A01 T00731065  RH  037%=      5-min Rain = 0
KSM2 240916Z 35019KT 07/M07 A2998 RMK A01 T00731065  RH  037%=      5-min Rain = 0
KSM2 240917Z 35018KT 07/M06 A2998 RMK A01 T00741063  RH  037%=      5-min Rain = 0
KSM2 240918Z 35017KT 07/M06 A2998 RMK A01 T00741063  RH  037%=      5-min Rain = 0
KSM2 240919Z 35016KT 07/M06 A2998 RMK A01 T00731062  RH  038%=      5-min Rain = 0
KSM2 240920Z 35016KT 07/M06 A2998 RMK A01 T00721062  RH  038%=      5-min Rain = 0
KSM2 240921Z 35016KT 07/M06 A2998 RMK A01 T00711061  RH  039%=      5-min Rain = 0
KSM2 240922Z 35015KT 07/M06 A2998 RMK A01 T00701059  RH  039%=      5-min Rain = 0
KSM2 240923Z 00016KT 07/M06 A2998 RMK A01 T00701058  RH  040%=      5-min Rain = 0
KSM2 240924Z 36016KT 07/M06 A2998 RMK A01 T00691056  RH  040%=      5-min Rain = 0
KSM2 240925Z 36017KT 07/M05 A2998 RMK A01 T00701054  RH  041%=      5-min Rain = 0
KSM2 240926Z 36017KT 07/M05 A2998 RMK A01 T00711052  RH  041%=      5-min Rain = 0
KSM2 240927Z 36016KT 07/M05 A2998 RMK A01 T00711051  RH  041%=      5-min Rain = 0
KSM2 240928Z 36016KT 07/M05 A2998 RMK A01 T00711051  RH  042%=      5-min Rain = 0
KSM2 240929Z 36016KT 07/M05 A2998 RMK A01 T00711049  RH  042%=      5-min Rain = 0
KSM2 240930Z 36016KT 07/M05 A2998 RMK A01 T00721048  RH  042%=      5-min Rain = 0
KSM2 240931Z 36014KT 07/M05 A2998 RMK A01 T00721048  RH  042%=      5-min Rain = 0
KSM2 240932Z 36014KT 07/M05 A2999 RMK A01 T00711048  RH  042%=      5-min Rain = 0
KSM2 240933Z 36013KT 07/M05 A2999 RMK A01 T00701048  RH  043%=      5-min Rain = 0
KSM2 240934Z 36013KT 07/M05 A2999 RMK A01 T00691048  RH  043%=      5-min Rain = 0
KSM2 240935Z 36013KT 07/M05 A2999 RMK A01 T00691047  RH  043%=      5-min Rain = 0
KSM2 240936Z 35013KT 07/M05 A2999 RMK A01 T00691047  RH  043%=      5-min Rain = 0
KSM2 240937Z 35014KT 07/M05 A2999 RMK A01 T00681048  RH  043%=      5-min Rain = 0
KSM2 240938Z 36013KT 07/M05 A2999 RMK A01 T00681047  RH  044%=      5-min Rain = 0
KSM2 240939Z 36015KT 07/M05 A2999 RMK A01 T00681047  RH  044%=      5-min Rain = 0
KSM2 240940Z 36014KT 07/M05 A2999 RMK A01 T00681046  RH  044%=      5-min Rain = 0
KSM2 240941Z 36014KT 07/M05 A2999 RMK A01 T00691046  RH  044%=      5-min Rain = 0
KSM2 240942Z 36015KT 07/M05 A2999 RMK A01 T00691045  RH  044%=      5-min Rain = 0
KSM2 240943Z 00015KT 07/M05 A2999 RMK A01 T00691045  RH  044%=      5-min Rain = 0
KSM2 240944Z 00014KT 07/M05 A2999 RMK A01 T00691045  RH  044%=      5-min Rain = 0
KSM2 240945Z 00016KT 07/M05 A2999 RMK A01 T00691045  RH  044%=      5-min Rain = 0
KSM2 240946Z 36015KT 07/M04 A2999 RMK A01 T00691044  RH  044%=      5-min Rain = 0
KSM2 240947Z 00014KT 07/M04 A30 RMK A01 T00701044  RH  044%=      5-min Rain = 0
KSM2 240948Z 36014KT 07/M04 A30 RMK A01 T00691044  RH  044%=      5-min Rain = 0
KSM2 240949Z 36013KT 07/M04 A30 RMK A01 T00691044  RH  044%=      5-min Rain = 0
KSM2 240950Z 36012KT 07/M04 A30 RMK A01 T00681044  RH  045%=      5-min Rain = 0
KSM2 240951Z 00013KT 07/M04 A30 RMK A01 T00661044  RH  045%=      5-min Rain = 0
KSM2 240952Z 00014G19KT 07/M04 A30 RMK A01 T00661044  RH  045%=      5-min Rain = 0
KSM2 240953Z 00015KT 07/M04 A30 RMK A01 T00671044  RH  045%=      5-min Rain = 0
KSM2 240954Z 00013KT 07/M04 A30 RMK A01 T00681043  RH  045%=      5-min Rain = 0
KSM2 240955Z 01013KT 07/M04 A30 RMK A01 T00681043  RH  045%=      5-min Rain = 0
KSM2 240956Z 00014KT 07/M04 A30 RMK A01 T00671044  RH  045%=      5-min Rain = 0
KSM2 240957Z 00013KT 07/M04 A30 RMK A01 T00671044  RH  045%=      5-min Rain = 0
KSM2 240958Z 00012KT 07/M04 A30 RMK A01 T00671043  RH  045%=      5-min Rain = 0
KSM2 240959Z 00013KT 07/M04 A3001 RMK A01 T00661044  RH  045%=      5-min Rain = 0
KSM2 241000Z 01013KT 07/M04 A3001 RMK A01 T00651044  RH  046%=      5-min Rain = 0
KSM2 241001Z 00011KT 07/M04 A3001 RMK A01 T00651044  RH  046%=      5-min Rain = 0
KSM2 241002Z 00011KT 06/M04 A3001 RMK A01 T00631044  RH  046%=      5-min Rain = 0
KSM2 241003Z 00012KT 06/M04 A3001 RMK A01 T00621044  RH  046%=      5-min Rain = 0
KSM2 241004Z 00012KT 06/M04 A3001 RMK A01 T00621044  RH  047%=      5-min Rain = 0
KSM2 241005Z 00012KT 06/M05 A3001 RMK A01 T00601045  RH  047%=      5-min Rain = 0
KSM2 241006Z 36013KT 06/M04 A3001 RMK A01 T00601044  RH  047%=      5-min Rain = 0
KSM2 241007Z 36012KT 06/M04 A3001 RMK A01 T00601044  RH  047%=      5-min Rain = 0
KSM2 241008Z 36013KT 06/M04 A3001 RMK A01 T00591044  RH  048%=      5-min Rain = 0
KSM2 241009Z 36013KT 06/M04 A3001 RMK A01 T00591044  RH  048%=      5-min Rain = 0
KSM2 241010Z 36013KT 06/M04 A3001 RMK A01 T00581044  RH  048%=      5-min Rain = 0
KSM2 241011Z 36013KT 06/M04 A3001 RMK A01 T00591044  RH  048%=      5-min Rain = 0
KSM2 241012Z 36013KT 06/M04 A3001 RMK A01 T00581044  RH  048%=      5-min Rain = 0
KSM2 241013Z 36013KT 06/M04 A3001 RMK A01 T00581044  RH  048%=      5-min Rain = 0
KSM2 241014Z 35013KT 06/M04 A3001 RMK A01 T00581044  RH  048%=      5-min Rain = 0
KSM2 241015Z 35013KT 06/M05 A3001 RMK A01 T00571045  RH  048%=      5-min Rain = 0
KSM2 241016Z 36013KT 06/M05 A3001 RMK A01 T00571045  RH  048%=      5-min Rain = 0
KSM2 241017Z 00014KT 06/M04 A3001 RMK A01 T00571044  RH  048%=      5-min Rain = 0
KSM2 241018Z 00012KT 06/M04 A3001 RMK A01 T00571044  RH  048%=      5-min Rain = 0
KSM2 241019Z 00013KT 06/M04 A3001 RMK A01 T00571044  RH  048%=      5-min Rain = 0
KSM2 241020Z 01014KT 06/M04 A3001 RMK A01 T00581043  RH  048%=      5-min Rain = 0
KSM2 241021Z 00014KT 06/M04 A3001 RMK A01 T00591043  RH  048%=      5-min Rain = 0
KSM2 241022Z 36014KT 06/M04 A3001 RMK A01 T00591043  RH  048%=      5-min Rain = 0
KSM2 241023Z 35014KT 06/M04 A3001 RMK A01 T00581044  RH  048%=      5-min Rain = 0
KSM2 241024Z 35015KT 06/M05 A3002 RMK A01 T00581045  RH  048%=      5-min Rain = 0
KSM2 241025Z 35015KT 06/M05 A3002 RMK A01 T00571045  RH  048%=      5-min Rain = 0
KSM2 241026Z 35015KT 06/M05 A3002 RMK A01 T00561045  RH  048%=      5-min Rain = 0
KSM2 241027Z 35013KT 06/M05 A3002 RMK A01 T00561045  RH  048%=      5-min Rain = 0
KSM2 241028Z 36016KT 06/M05 A3002 RMK A01 T00561045  RH  048%=      5-min Rain = 0
KSM2 241029Z 36018KT 06/M04 A3001 RMK A01 T00571044  RH  048%=      5-min Rain = 0
KSM2 241030Z 36017KT 06/M04 A3002 RMK A01 T00601044  RH  047%=      5-min Rain = 0
KSM2 241031Z 36016KT 06/M05 A3002 RMK A01 T00601045  RH  047%=      5-min Rain = 0
KSM2 241032Z 00015KT 06/M05 A3002 RMK A01 T00601045  RH  047%=      5-min Rain = 0
KSM2 241033Z 00016KT 06/M05 A3002 RMK A01 T00601045  RH  047%=      5-min Rain = 0
KSM2 241034Z 36015KT 06/M05 A3002 RMK A01 T00591045  RH  047%=      5-min Rain = 0
KSM2 241035Z 00016KT 06/M05 A3002 RMK A01 T00591045  RH  047%=      5-min Rain = 0
KSM2 241036Z 36015KT 06/M05 A3002 RMK A01 T00591045  RH  047%=      5-min Rain = 0
KSM2 241037Z 00015KT 06/M05 A3002 RMK A01 T00591045  RH  047%=      5-min Rain = 0
KSM2 241038Z 36014KT 06/M05 A3002 RMK A01 T00581046  RH  047%=      5-min Rain = 0
KSM2 241039Z 36014KT 06/M05 A3002 RMK A01 T00571046  RH  047%=      5-min Rain = 0
KSM2 241040Z 00014KT 06/M05 A3002 RMK A01 T00571046  RH  048%=      5-min Rain = 0
KSM2 241041Z 00015KT 06/M05 A3002 RMK A01 T00571046  RH  048%=      5-min Rain = 0
KSM2 241042Z 00013KT 06/M05 A3002 RMK A01 T00571046  RH  048%=      5-min Rain = 0
KSM2 241043Z 00015KT 06/M05 A3002 RMK A01 T00561046  RH  048%=      5-min Rain = 0
KSM2 241044Z 00014G19KT 06/M05 A3003 RMK A01 T00561046  RH  048%=      5-min Rain = 0
KSM2 241045Z 00013KT 06/M05 A3003 RMK A01 T00571046  RH  047%=      5-min Rain = 0
KSM2 241046Z 00013KT 06/M05 A3003 RMK A01 T00571046  RH  047%=      5-min Rain = 0
KSM2 241047Z 00014KT 06/M05 A3003 RMK A01 T00561047  RH  048%=      5-min Rain = 0
KSM2 241048Z 36011KT 06/M05 A3003 RMK A01 T00561047  RH  048%=      5-min Rain = 0
KSM2 241049Z 00014KT 05/M05 A3003 RMK A01 T00541048  RH  048%=      5-min Rain = 0
KSM2 241050Z 36013KT 05/M05 A3003 RMK A01 T00531047  RH  048%=      5-min Rain = 0
KSM2 241051Z 36013KT 05/M05 A3003 RMK A01 T00531047  RH  048%=      5-min Rain = 0
KSM2 241052Z 36013KT 05/M05 A3003 RMK A01 T00531048  RH  048%=      5-min Rain = 0
KSM2 241053Z 36014KT 05/M05 A3003 RMK A01 T00521047  RH  049%=      5-min Rain = 0
KSM2 241054Z 00014KT 05/M05 A3003 RMK A01 T00521048  RH  049%=      5-min Rain = 0
KSM2 241055Z 36015KT 05/M05 A3003 RMK A01 T00521048  RH  048%=      5-min Rain = 0
KSM2 241056Z 36015KT 05/M05 A3003 RMK A01 T00531047  RH  048%=      5-min Rain = 0
KSM2 241057Z 36014KT 05/M05 A3003 RMK A01 T00531047  RH  048%=      5-min Rain = 0
KSM2 241058Z 36013KT 05/M05 A3004 RMK A01 T00531048  RH  048%=      5-min Rain = 0
KSM2 241059Z 36013KT 05/M05 A3004 RMK A01 T00521048  RH  048%=      5-min Rain = 0
KSM2 241100Z 36014KT 05/M05 A3004 RMK A01 T00511048  RH  048%=      5-min Rain = 0
KSM2 241101Z 36014KT 05/M05 A3004 RMK A01 T00511049  RH  049%=      5-min Rain = 0
KSM2 241102Z 36014KT 05/M05 A3004 RMK A01 T00511049  RH  048%=      5-min Rain = 0
KSM2 241103Z 36015KT 05/M05 A3004 RMK A01 T00511049  RH  048%=      5-min Rain = 0
KSM2 241104Z 36016KT 05/M05 A3004 RMK A01 T00511049  RH  048%=      5-min Rain = 0
KSM2 241105Z 36015KT 05/M05 A3004 RMK A01 T00511049  RH  048%=      5-min Rain = 0
KSM2 241106Z 35015KT 05/M05 A3004 RMK A01 T00511049  RH  048%=      5-min Rain = 0
KSM2 241107Z 35014KT 05/M05 A3004 RMK A01 T00501050  RH  048%=      5-min Rain = 0
KSM2 241108Z 35014KT 05/M05 A3004 RMK A01 T00501050  RH  049%=      5-min Rain = 0
KSM2 241109Z 35014KT 05/M05 A3004 RMK A01 T00491050  RH  049%=      5-min Rain = 0
KSM2 241110Z 35015KT 05/M05 A3004 RMK A01 T00481050  RH  049%=      5-min Rain = 0
KSM2 241111Z 35015KT 05/M05 A3004 RMK A01 T00481050  RH  049%=      5-min Rain = 0
KSM2 241112Z 00014KT 05/M05 A3004 RMK A01 T00481050  RH  049%=      5-min Rain = 0
KSM2 241113Z 36015KT 05/M05 A3004 RMK A01 T00481051  RH  049%=      5-min Rain = 0
KSM2 241114Z 36015KT 05/M05 A3004 RMK A01 T00481051  RH  049%=      5-min Rain = 0
KSM2 241115Z 36015KT 05/M05 A3004 RMK A01 T00481051  RH  049%=      5-min Rain = 0
KSM2 241116Z 36015KT 05/M05 A3004 RMK A01 T00491051  RH  049%=      5-min Rain = 0
KSM2 241117Z 36014KT 05/M05 A3004 RMK A01 T00491051  RH  048%=      5-min Rain = 0
KSM2 241118Z 00014KT 05/M05 A3004 RMK A01 T00491051  RH  049%=      5-min Rain = 0
KSM2 241119Z 00014KT 05/M05 A3004 RMK A01 T00491051  RH  049%=      5-min Rain = 0
KSM2 241120Z 36014KT 05/M05 A3004 RMK A01 T00481051  RH  049%=      5-min Rain = 0
KSM2 241121Z 36016KT 05/M05 A3005 RMK A01 T00481051  RH  048%=      5-min Rain = 0
KSM2 241122Z 36016KT 05/M05 A3005 RMK A01 T00491052  RH  048%=      5-min Rain = 0
KSM2 241123Z 36017KT 05/M05 A3005 RMK A01 T00491052  RH  048%=      5-min Rain = 0
KSM2 241124Z 35017KT 05/M05 A3005 RMK A01 T00491052  RH  048%=      5-min Rain = 0
KSM2 241125Z 36017KT 05/M05 A3005 RMK A01 T00501052  RH  048%=      5-min Rain = 0
KSM2 241126Z 36016KT 05/M05 A3005 RMK A01 T00501052  RH  048%=      5-min Rain = 0
KSM2 241127Z 36014KT 05/M05 A3005 RMK A01 T00491052  RH  048%=      5-min Rain = 0
KSM2 241128Z 36013KT 05/M05 A3005 RMK A01 T00481053  RH  048%=      5-min Rain = 0
KSM2 241129Z 35015KT 05/M05 A3005 RMK A01 T00471053  RH  048%=      5-min Rain = 0
KSM2 241130Z 35014KT 05/M05 A3005 RMK A01 T00471052  RH  049%=      5-min Rain = 0
KSM2 241131Z 35014KT 05/M05 A3005 RMK A01 T00461052  RH  049%=      5-min Rain = 0
KSM2 241132Z 35014KT 05/M05 A3005 RMK A01 T00451053  RH  049%=      5-min Rain = 0
KSM2 241133Z 35014KT 05/M05 A3005 RMK A01 T00451053  RH  049%=      5-min Rain = 0
KSM2 241134Z 35015KT 04/M05 A3005 RMK A01 T00441053  RH  049%=      5-min Rain = 0
KSM2 241135Z 35014KT 04/M05 A3005 RMK A01 T00441053  RH  049%=      5-min Rain = 0
KSM2 241136Z 35014KT 05/M05 A3005 RMK A01 T00451052  RH  049%=      5-min Rain = 0
KSM2 241137Z 35013KT 04/M05 A3005 RMK A01 T00441053  RH  049%=      5-min Rain = 0
KSM2 241138Z 35014KT 04/M05 A3005 RMK A01 T00431053  RH  050%=      5-min Rain = 0
KSM2 241139Z 35014KT 04/M05 A3005 RMK A01 T00431053  RH  050%=      5-min Rain = 0
KSM2 241140Z 35016KT 04/M05 A3006 RMK A01 T00431052  RH  050%=      5-min Rain = 0
KSM2 241141Z 35015KT 04/M05 A3006 RMK A01 T00431053  RH  050%=      5-min Rain = 0
KSM2 241142Z 35014KT 04/M05 A3006 RMK A01 T00431053  RH  050%=      5-min Rain = 0
KSM2 241143Z 35014KT 04/M05 A3006 RMK A01 T00431052  RH  050%=      5-min Rain = 0
KSM2 241144Z 35014KT 04/M05 A3006 RMK A01 T00431052  RH  050%=      5-min Rain = 0
KSM2 241145Z 35015KT 04/M05 A3006 RMK A01 T00421052  RH  050%=      5-min Rain = 0
KSM2 241146Z 35015KT 04/M05 A3006 RMK A01 T00421052  RH  050%=      5-min Rain = 0
KSM2 241147Z 35015KT 04/M05 A3006 RMK A01 T00421052  RH  050%=      5-min Rain = 0
KSM2 241148Z 35015KT 04/M05 A3006 RMK A01 T00421052  RH  050%=      5-min Rain = 0
KSM2 241149Z 35015KT 04/M05 A3006 RMK A01 T00421053  RH  050%=      5-min Rain = 0
KSM2 241150Z 35015KT 04/M05 A3006 RMK A01 T00421052  RH  050%=      5-min Rain = 0
KSM2 241151Z 35015KT 04/M05 A3006 RMK A01 T00411052  RH  051%=      5-min Rain = 0
KSM2 241152Z 35016KT 04/M05 A3006 RMK A01 T00411052  RH  051%=      5-min Rain = 0
KSM2 241153Z 36016KT 04/M05 A3006 RMK A01 T00421052  RH  050%=      5-min Rain = 0
KSM2 241154Z 35016KT 04/M05 A3006 RMK A01 T00421052  RH  050%=      5-min Rain = 0
KSM2 241155Z 36016KT 04/M05 A3006 RMK A01 T00421052  RH  050%=      5-min Rain = 0
KSM2 241156Z 36016KT 04/M05 A3006 RMK A01 T00421052  RH  050%=      5-min Rain = 0
KSM2 241157Z 36015KT 04/M05 A3006 RMK A01 T00421052  RH  050%=      5-min Rain = 0
KSM2 241158Z 35016KT 04/M05 A3006 RMK A01 T00411053  RH  050%=      5-min Rain = 0
KSM2 241159Z 36015KT 04/M05 A3006 RMK A01 T00411053  RH  050%=      5-min Rain = 0
KSM2 241200Z 36015KT 04/M05 A3006 RMK A01 T00411053  RH  051%=      5-min Rain = 0
KSM2 241201Z 35016KT 04/M05 A3006 RMK A01 T00401053  RH  051%=      5-min Rain = 0
KSM2 241202Z 36017KT 04/M05 A3006 RMK A01 T00401053  RH  051%=      5-min Rain = 0
KSM2 241203Z 35016KT 04/M05 A3007 RMK A01 T00401053  RH  051%=      5-min Rain = 0
KSM2 241204Z 35015KT 04/M05 A3007 RMK A01 T00401053  RH  051%=      5-min Rain = 0
KSM2 241205Z 36016KT 04/M05 A3007 RMK A01 T00411053  RH  051%=      5-min Rain = 0
KSM2 241206Z 35014KT 04/M05 A3007 RMK A01 T00401053  RH  051%=      5-min Rain = 0
KSM2 241207Z 35016KT 04/M05 A3007 RMK A01 T00401053  RH  051%=      5-min Rain = 0
KSM2 241208Z 36015KT 04/M05 A3007 RMK A01 T00401053  RH  051%=      5-min Rain = 0
KSM2 241209Z 35015KT 04/M05 A3007 RMK A01 T00401053  RH  051%=      5-min Rain = 0
KSM2 241210Z 35015KT 04/M05 A3007 RMK A01 T00401053  RH  051%=      5-min Rain = 0
KSM2 241211Z 35014KT 04/M05 A3007 RMK A01 T00391054  RH  051%=      5-min Rain = 0
KSM2 241212Z 36014KT 04/M05 A3007 RMK A01 T00381054  RH  051%=      5-min Rain = 0
KSM2 241213Z 35014KT 04/M05 A3007 RMK A01 T00381054  RH  051%=      5-min Rain = 0
KSM2 241214Z 35014KT 04/M05 A3007 RMK A01 T00381054  RH  051%=      5-min Rain = 0
KSM2 241215Z 35014KT 04/M05 A3007 RMK A01 T00381054  RH  051%=      5-min Rain = 0
KSM2 241216Z 35014KT 04/M05 A3007 RMK A01 T00381054  RH  051%=      5-min Rain = 0
KSM2 241217Z 35015KT 04/M05 A3007 RMK A01 T00381054  RH  051%=      5-min Rain = 0
KSM2 241218Z 35015KT 04/M05 A3007 RMK A01 T00381054  RH  051%=      5-min Rain = 0
KSM2 241219Z 36016KT 04/M05 A3007 RMK A01 T00381054  RH  051%=      5-min Rain = 0
KSM2 241220Z 35016KT 04/M05 A3007 RMK A01 T00391053  RH  051%=      5-min Rain = 0
KSM2 241221Z 35016KT 04/M05 A3008 RMK A01 T00391054  RH  051%=      5-min Rain = 0
KSM2 241222Z 35016KT 04/M05 A3008 RMK A01 T00391054  RH  051%=      5-min Rain = 0
KSM2 241223Z 35017KT 04/M05 A3008 RMK A01 T00401053  RH  051%=      5-min Rain = 0
KSM2 241224Z 35016KT 04/M05 A3008 RMK A01 T00401053  RH  051%=      5-min Rain = 0
KSM2 241225Z 35017KT 04/M05 A3008 RMK A01 T00401053  RH  050%=      5-min Rain = 0
KSM2 241226Z 35015KT 04/M05 A3008 RMK A01 T00401053  RH  050%=      5-min Rain = 0
KSM2 241227Z 35016KT 04/M05 A3008 RMK A01 T00401054  RH  051%=      5-min Rain = 0
KSM2 241228Z 35015KT 04/M05 A3008 RMK A01 T00391054  RH  051%=      5-min Rain = 0
KSM2 241229Z 36016KT 04/M05 A3008 RMK A01 T00381054  RH  051%=      5-min Rain = 0
KSM2 241230Z 36016KT 04/M05 A3008 RMK A01 T00391053  RH  051%=      5-min Rain = 0
KSM2 241231Z 36016KT 04/M05 A3008 RMK A01 T00381053  RH  051%=      5-min Rain = 0
KSM2 241232Z 36016KT 04/M05 A3008 RMK A01 T00381053  RH  051%=      5-min Rain = 0
KSM2 241233Z 35016KT 04/M05 A3008 RMK A01 T00381053  RH  051%=      5-min Rain = 0
KSM2 241234Z 36017KT 04/M05 A3008 RMK A01 T00381053  RH  052%=      5-min Rain = 0
KSM2 241235Z 36015KT 04/M05 A3008 RMK A01 T00381052  RH  052%=      5-min Rain = 0
KSM2 241236Z 00017KT 04/M05 A3008 RMK A01 T00381053  RH  052%=      5-min Rain = 0
KSM2 241237Z 36018KT 04/M05 A3008 RMK A01 T00381052  RH  052%=      5-min Rain = 0
KSM2 241238Z 36017KT 04/M05 A3008 RMK A01 T00391052  RH  051%=      5-min Rain = 0
KSM2 241239Z 36016KT 04/M05 A3008 RMK A01 T00391053  RH  051%=      5-min Rain = 0
KSM2 241240Z 35018KT 04/M05 A3008 RMK A01 T00401053  RH  051%=      5-min Rain = 0
KSM2 241241Z 36017KT 04/M05 A3008 RMK A01 T00401052  RH  051%=      5-min Rain = 0
KSM2 241242Z 36016KT 04/M05 A3008 RMK A01 T00401052  RH  051%=      5-min Rain = 0
KSM2 241243Z 36014KT 04/M05 A3008 RMK A01 T00401053  RH  051%=      5-min Rain = 0
KSM2 241244Z 36015KT 04/M05 A3008 RMK A01 T00391053  RH  051%=      5-min Rain = 0
KSM2 241245Z 00015G21KT 04/M05 A3008 RMK A01 T00391053  RH  051%=      5-min Rain = 0
KSM2 241246Z 36015KT 04/M05 A3008 RMK A01 T00391053  RH  051%=      5-min Rain = 0
KSM2 241247Z 36015KT 04/M05 A3008 RMK A01 T00381053  RH  051%=      5-min Rain = 0
KSM2 241248Z 36014KT 04/M05 A3008 RMK A01 T00371053  RH  052%=      5-min Rain = 0
KSM2 241249Z 35014KT 04/M05 A3008 RMK A01 T00361053  RH  052%=      5-min Rain = 0
KSM2 241250Z 35015KT 04/M05 A3008 RMK A01 T00361053  RH  052%=      5-min Rain = 0
KSM2 241251Z 35014KT 04/M05 A3008 RMK A01 T00351053  RH  052%=      5-min Rain = 0
KSM2 241252Z 35013KT 04/M05 A3008 RMK A01 T00351053  RH  053%=      5-min Rain = 0
KSM2 241253Z 35014KT 03/M05 A3008 RMK A01 T00341053  RH  053%=      5-min Rain = 0
KSM2 241254Z 35014KT 03/M05 A3009 RMK A01 T00341052  RH  053%=      5-min Rain = 0
KSM2 241255Z 35013KT 03/M05 A3009 RMK A01 T00341052  RH  053%=      5-min Rain = 0
KSM2 241256Z 35012KT 03/M05 A3009 RMK A01 T00331053  RH  053%=      5-min Rain = 0
KSM2 241257Z 35012KT 03/M05 A3009 RMK A01 T00321053  RH  054%=      5-min Rain = 0
KSM2 241258Z 35013KT 03/M05 A3009 RMK A01 T00311053  RH  054%=      5-min Rain = 0
KSM2 241259Z 35013KT 03/M05 A3009 RMK A01 T00311053  RH  054%=      5-min Rain = 0
KSM2 241300Z 35013KT 03/M05 A3009 RMK A01 T00311052  RH  054%=      5-min Rain = 0
KSM2 241301Z 35013KT 03/M05 A3009 RMK A01 T00301053  RH  055%=      5-min Rain = 0
KSM2 241302Z 35013KT 03/M05 A3009 RMK A01 T00291052  RH  055%=      5-min Rain = 0
KSM2 241303Z 35013KT 03/M05 A3009 RMK A01 T00291052  RH  055%=      5-min Rain = 0
KSM2 241304Z 35013KT 03/M05 A3009 RMK A01 T00281052  RH  055%=      5-min Rain = 0
KSM2 241305Z 36014KT 03/M05 A3009 RMK A01 T00281052  RH  055%=      5-min Rain = 0
KSM2 241306Z 36013KT 03/M05 A3009 RMK A01 T00281052  RH  056%=      5-min Rain = 0
KSM2 241307Z 36013KT 03/M05 A3009 RMK A01 T00281051  RH  056%=      5-min Rain = 0
KSM2 241308Z 36013KT 03/M05 A3009 RMK A01 T00281051  RH  056%=      5-min Rain = 0
KSM2 241309Z 36014KT 03/M05 A3009 RMK A01 T00281051  RH  056%=      5-min Rain = 0
KSM2 241310Z 36013KT 03/M05 A3009 RMK A01 T00281051  RH  056%=      5-min Rain = 0
KSM2 241311Z 35012KT 03/M05 A3009 RMK A01 T00281051  RH  056%=      5-min Rain = 0
KSM2 241312Z 35012KT 03/M05 A3009 RMK A01 T00281051  RH  056%=      5-min Rain = 0
KSM2 241313Z 35012KT 03/M05 A301 RMK A01 T00271051  RH  056%=      5-min Rain = 0
KSM2 241314Z 35013KT 03/M05 A301 RMK A01 T00271051  RH  056%=      5-min Rain = 0
KSM2 241315Z 35012KT 03/M05 A301 RMK A01 T00271051  RH  056%=      5-min Rain = 0
KSM2 241316Z 34012KT 03/M05 A301 RMK A01 T00271051  RH  056%=      5-min Rain = 0
KSM2 241317Z 34012KT 03/M05 A301 RMK A01 T00271051  RH  056%=      5-min Rain = 0
KSM2 241318Z 34011KT 03/M05 A301 RMK A01 T00271051  RH  056%=      5-min Rain = 0
KSM2 241319Z 35011KT 03/M05 A3011 RMK A01 T00271051  RH  056%=      5-min Rain = 0
KSM2 241320Z 35011KT 03/M05 A3011 RMK A01 T00271051  RH  056%=      5-min Rain = 0
KSM2 241321Z 34010KT 03/M05 A3011 RMK A01 T00281050  RH  056%=      5-min Rain = 0
KSM2 241322Z 34010KT 03/M05 A3011 RMK A01 T00291050  RH  056%=      5-min Rain = 0
KSM2 241323Z 34009KT 03/M05 A3011 RMK A01 T00291051  RH  056%=      5-min Rain = 0
KSM2 241324Z 35011KT 03/M05 A3011 RMK A01 T00281051  RH  056%=      5-min Rain = 0
KSM2 241325Z 35012KT 03/M05 A3011 RMK A01 T00291050  RH  056%=      5-min Rain = 0
KSM2 241326Z 35012KT 03/M05 A3011 RMK A01 T00291050  RH  056%=      5-min Rain = 0
KSM2 241327Z 35013KT 03/M05 A3011 RMK A01 T00301050  RH  056%=      5-min Rain = 0
KSM2 241328Z 36013KT 03/M05 A3011 RMK A01 T00301050  RH  056%=      5-min Rain = 0
KSM2 241329Z 36013KT 03/M05 A3011 RMK A01 T00301050  RH  056%=      5-min Rain = 0
KSM2 241330Z 36012KT 03/M05 A3011 RMK A01 T00301050  RH  056%=      5-min Rain = 0
KSM2 241331Z 00012KT 03/M05 A3011 RMK A01 T00291050  RH  056%=      5-min Rain = 0
KSM2 241332Z 36012KT 03/M05 A3011 RMK A01 T00291050  RH  056%=      5-min Rain = 0
KSM2 241333Z 36012KT 03/M05 A3011 RMK A01 T00291050  RH  056%=      5-min Rain = 0
KSM2 241334Z 36012KT 03/M05 A3011 RMK A01 T00291050  RH  056%=      5-min Rain = 0
KSM2 241335Z 36011KT 03/M05 A3011 RMK A01 T00291050  RH  056%=      5-min Rain = 0
KSM2 241336Z 36012KT 03/M05 A3011 RMK A01 T00291050  RH  056%=      5-min Rain = 0
KSM2 241337Z 36011KT 03/M05 A3012 RMK A01 T00291050  RH  056%=      5-min Rain = 0
KSM2 241338Z 36010KT 03/M05 A3012 RMK A01 T00281050  RH  056%=      5-min Rain = 0
KSM2 241339Z 36010KT 03/M05 A3012 RMK A01 T00281050  RH  056%=      5-min Rain = 0
KSM2 241340Z 36010KT 03/M05 A3012 RMK A01 T00271051  RH  057%=      5-min Rain = 0
KSM2 241341Z 35010KT 03/M05 A3012 RMK A01 T00261051  RH  057%=      5-min Rain = 0
KSM2 241342Z 35009KT 03/M05 A3012 RMK A01 T00261050  RH  057%=      5-min Rain = 0
KSM2 241343Z 35009KT 03/M05 A3012 RMK A01 T00251051  RH  057%=      5-min Rain = 0
KSM2 241344Z 35009KT 02/M05 A3013 RMK A01 T00241051  RH  058%=      5-min Rain = 0
KSM2 241345Z 35009KT 02/M05 A3013 RMK A01 T00241050  RH  058%=      5-min Rain = 0
KSM2 241346Z 34010KT 02/M05 A3013 RMK A01 T00241051  RH  058%=      5-min Rain = 0
KSM2 241347Z 35010KT 03/M05 A3013 RMK A01 T00251050  RH  058%=      5-min Rain = 0
KSM2 241348Z 35011KT 03/M05 A3013 RMK A01 T00251051  RH  057%=      5-min Rain = 0
KSM2 241349Z 35012KT 03/M05 A3013 RMK A01 T00251050  RH  057%=      5-min Rain = 0
KSM2 241350Z 35011KT 03/M05 A3013 RMK A01 T00261050  RH  057%=      5-min Rain = 0
KSM2 241351Z 35011KT 03/M05 A3013 RMK A01 T00261050  RH  057%=      5-min Rain = 0
KSM2 241352Z 35010KT 03/M05 A3013 RMK A01 T00261050  RH  057%=      5-min Rain = 0
KSM2 241353Z 35011KT 03/M05 A3013 RMK A01 T00261050  RH  057%=      5-min Rain = 0
KSM2 241354Z 35011KT 03/M05 A3013 RMK A01 T00271049  RH  057%=      5-min Rain = 0
KSM2 241355Z 35011KT 03/M05 A3013 RMK A01 T00271049  RH  057%=      5-min Rain = 0
KSM2 241356Z 34013KT 03/M05 A3013 RMK A01 T00271049  RH  057%=      5-min Rain = 0
KSM2 241357Z 35011KT 03/M05 A3013 RMK A01 T00281049  RH  057%=      5-min Rain = 0
KSM2 241358Z 35012KT 03/M05 A3013 RMK A01 T00281049  RH  057%=      5-min Rain = 0
KSM2 241359Z 35012KT 03/M05 A3013 RMK A01 T00281049  RH  057%=      5-min Rain = 0
KSM2 241400Z 35011KT 03/M05 A3013 RMK A01 T00291049  RH  057%=      5-min Rain = 0
KSM2 241401Z 35012KT 03/M05 A3013 RMK A01 T00291049  RH  057%=      5-min Rain = 0
KSM2 241402Z 35012KT 03/M05 A3013 RMK A01 T00291049  RH  057%=      5-min Rain = 0
KSM2 241403Z 35012KT 03/M05 A3014 RMK A01 T00291049  RH  057%=      5-min Rain = 0
KSM2 241404Z 35012KT 03/M05 A3014 RMK A01 T00301048  RH  057%=      5-min Rain = 0
KSM2 241405Z 35012KT 03/M05 A3014 RMK A01 T00301048  RH  056%=      5-min Rain = 0
KSM2 241406Z 35012KT 03/M05 A3014 RMK A01 T00301048  RH  056%=      5-min Rain = 0
KSM2 241407Z 35012KT 03/M05 A3014 RMK A01 T00301048  RH  056%=      5-min Rain = 0
KSM2 241408Z 35012KT 03/M05 A3014 RMK A01 T00311048  RH  056%=      5-min Rain = 0
KSM2 241409Z 35013KT 03/M05 A3014 RMK A01 T00311047  RH  056%=      5-min Rain = 0
KSM2 241410Z 35013KT 03/M05 A3014 RMK A01 T00311047  RH  056%=      5-min Rain = 0
KSM2 241411Z 35014KT 03/M05 A3014 RMK A01 T00321047  RH  056%=      5-min Rain = 0
KSM2 241412Z 35013KT 03/M05 A3014 RMK A01 T00321047  RH  056%=      5-min Rain = 0
KSM2 241413Z 35014KT 03/M05 A3014 RMK A01 T00331047  RH  056%=      5-min Rain = 0
KSM2 241414Z 35014KT 03/M05 A3014 RMK A01 T00331047  RH  055%=      5-min Rain = 0
KSM2 241415Z 36015KT 03/M05 A3014 RMK A01 T00341047  RH  055%=      5-min Rain = 0
KSM2 241416Z 36014KT 03/M05 A3014 RMK A01 T00341047  RH  055%=      5-min Rain = 0
KSM2 241417Z 36015KT 04/M05 A3014 RMK A01 T00351047  RH  055%=      5-min Rain = 0
KSM2 241418Z 36017KT 04/M05 A3014 RMK A01 T00351047  RH  055%=      5-min Rain = 0
KSM2 241419Z 36016KT 04/M05 A3014 RMK A01 T00361047  RH  054%=      5-min Rain = 0
KSM2 241420Z 35015KT 04/M05 A3014 RMK A01 T00371047  RH  054%=      5-min Rain = 0
KSM2 241421Z 36015KT 04/M05 A3014 RMK A01 T00371047  RH  054%=      5-min Rain = 0
KSM2 241422Z 36016KT 04/M05 A3014 RMK A01 T00381047  RH  054%=      5-min Rain = 0
KSM2 241423Z 36016KT 04/M05 A3015 RMK A01 T00391047  RH  054%=      5-min Rain = 0
KSM2 241424Z 36018KT 04/M05 A3015 RMK A01 T00391047  RH  054%=      5-min Rain = 0
KSM2 241425Z 36018KT 04/M05 A3015 RMK A01 T00391047  RH  053%=      5-min Rain = 0
KSM2 241426Z 36017KT 04/M05 A3015 RMK A01 T00391047  RH  053%=      5-min Rain = 0
KSM2 241427Z 36016KT 04/M05 A3015 RMK A01 T00401047  RH  053%=      5-min Rain = 0
KSM2 241428Z 36018KT 04/M05 A3015 RMK A01 T00401047  RH  053%=      5-min Rain = 0
KSM2 241429Z 00018KT 04/M05 A3015 RMK A01 T00401047  RH  053%=      5-min Rain = 0
KSM2 241430Z 00018KT 04/M05 A3015 RMK A01 T00411047  RH  053%=      5-min Rain = 0
KSM2 241431Z 00019KT 04/M05 A3015 RMK A01 T00411047  RH  053%=      5-min Rain = 0
KSM2 241432Z 00019G24KT 04/M05 A3015 RMK A01 T00411047  RH  053%=      5-min Rain = 0
KSM2 241433Z 00018KT 04/M05 A3015 RMK A01 T00421047  RH  053%=      5-min Rain = 0
KSM2 241434Z 00018KT 04/M05 A3015 RMK A01 T00421046  RH  053%=      5-min Rain = 0
KSM2 241435Z 35018KT 04/M05 A3015 RMK A01 T00431046  RH  052%=      5-min Rain = 0
KSM2 241436Z 35017KT 04/M05 A3016 RMK A01 T00431047  RH  052%=      5-min Rain = 0
KSM2 241437Z 35020KT 04/M05 A3016 RMK A01 T00431045  RH  052%=      5-min Rain = 0
KSM2 241438Z 36020KT 04/M05 A3016 RMK A01 T00441046  RH  052%=      5-min Rain = 0
KSM2 241439Z 35016KT 04/M05 A3016 RMK A01 T00441046  RH  052%=      5-min Rain = 0
KSM2 241440Z 36015KT 05/M05 A3016 RMK A01 T00451045  RH  052%=      5-min Rain = 0
KSM2 241441Z 36017KT 05/M04 A3016 RMK A01 T00461044  RH  052%=      5-min Rain = 0
KSM2 241442Z 00018KT 05/M04 A3016 RMK A01 T00471044  RH  052%=      5-min Rain = 0
KSM2 241443Z 36019KT 05/M05 A3016 RMK A01 T00471045  RH  051%=      5-min Rain = 0
KSM2 241444Z 36021KT 05/M05 A3016 RMK A01 T00471045  RH  052%=      5-min Rain = 0
KSM2 241445Z 35020KT 05/M04 A3016 RMK A01 T00471044  RH  052%=      5-min Rain = 0
KSM2 241446Z 36018KT 05/M04 A3016 RMK A01 T00471044  RH  052%=      5-min Rain = 0
KSM2 241447Z 00020KT 05/M04 A3016 RMK A01 T00471044  RH  052%=      5-min Rain = 0
KSM2 241448Z 00019KT 05/M04 A3016 RMK A01 T00471044  RH  051%=      5-min Rain = 0
KSM2 241449Z 36020KT 05/M04 A3016 RMK A01 T00471044  RH  051%=      5-min Rain = 0
KSM2 241450Z 00019KT 05/M04 A3016 RMK A01 T00481044  RH  052%=      5-min Rain = 0
KSM2 241451Z 36017KT 05/M04 A3016 RMK A01 T00491043  RH  052%=      5-min Rain = 0
KSM2 241452Z 00018G23KT 05/M04 A3016 RMK A01 T00501042  RH  051%=      5-min Rain = 0
KSM2 241453Z 00021G26KT 05/M04 A3016 RMK A01 T00501043  RH  051%=      5-min Rain = 0
KSM2 241454Z 00020KT 05/M04 A3016 RMK A01 T00501043  RH  051%=      5-min Rain = 0
KSM2 241455Z 00018KT 05/M04 A3016 RMK A01 T00491043  RH  051%=      5-min Rain = 0
KSM2 241456Z 01017KT 05/M04 A3016 RMK A01 T00491043  RH  051%=      5-min Rain = 0
KSM2 241457Z 00019KT 05/M04 A3016 RMK A01 T00491043  RH  051%=      5-min Rain = 0
KSM2 241458Z 01017KT 05/M04 A3017 RMK A01 T00501043  RH  051%=      5-min Rain = 0
KSM2 241459Z 00018KT 05/M04 A3017 RMK A01 T00501042  RH  051%=      5-min Rain = 0
KSM2 241500Z 01019KT 05/M04 A3017 RMK A01 T00501043  RH  051%=      5-min Rain = 0
KSM2 241501Z 00017KT 05/M04 A3017 RMK A01 T00501043  RH  051%=      5-min Rain = 0
KSM2 241502Z 36019KT 05/M04 A3017 RMK A01 T00501042  RH  051%=      5-min Rain = 0
KSM2 241503Z 00021KT 05/M04 A3017 RMK A01 T00511043  RH  051%=      5-min Rain = 0
KSM2 241504Z 01017G23KT 05/M04 A3017 RMK A01 T00511043  RH  051%=      5-min Rain = 0
KSM2 241505Z 00018KT 05/M04 A3017 RMK A01 T00521042  RH  051%=      5-min Rain = 0
KSM2 241506Z 01019KT 05/M04 A3017 RMK A01 T00531042  RH  050%=      5-min Rain = 0
KSM2 241507Z 01018KT 05/M04 A3017 RMK A01 T00521043  RH  050%=      5-min Rain = 0
KSM2 241508Z 01017KT 05/M04 A3017 RMK A01 T00521043  RH  050%=      5-min Rain = 0
KSM2 241509Z 01017KT 05/M04 A3017 RMK A01 T00521043  RH  050%=      5-min Rain = 0
KSM2 241510Z 01018KT 05/M04 A3017 RMK A01 T00531042  RH  050%=      5-min Rain = 0
KSM2 241511Z 01018KT 05/M04 A3017 RMK A01 T00541043  RH  050%=      5-min Rain = 0
KSM2 241512Z 01019KT 05/M04 A3018 RMK A01 T00541044  RH  049%=      5-min Rain = 0
KSM2 241513Z 00018KT 05/M04 A3018 RMK A01 T00541044  RH  049%=      5-min Rain = 0
KSM2 241514Z 01018KT 05/M04 A3018 RMK A01 T00541044  RH  049%=      5-min Rain = 0
KSM2 241515Z 01016KT 05/M05 A3018 RMK A01 T00541045  RH  049%=      5-min Rain = 0
KSM2 241516Z 00016G21KT 06/M04 A3018 RMK A01 T00551044  RH  049%=      5-min Rain = 0
KSM2 241517Z 01020KT 06/M04 A3018 RMK A01 T00571043  RH  049%=      5-min Rain = 0
KSM2 241518Z 01017KT 06/M04 A3018 RMK A01 T00581044  RH  048%=      5-min Rain = 0
KSM2 241519Z 01016KT 06/M04 A3018 RMK A01 T00581044  RH  048%=      5-min Rain = 0
KSM2 241520Z 01017KT 06/M05 A3018 RMK A01 T00571045  RH  048%=      5-min Rain = 0
KSM2 241521Z 36017KT 06/M04 A3018 RMK A01 T00571044  RH  048%=      5-min Rain = 0
KSM2 241522Z 00020KT 06/M05 A3018 RMK A01 T00581045  RH  048%=      5-min Rain = 0
KSM2 241523Z 01016KT 06/M05 A3018 RMK A01 T00571045  RH  048%=      5-min Rain = 0
KSM2 241524Z 36018KT 06/M05 A3018 RMK A01 T00571045  RH  048%=      5-min Rain = 0
KSM2 241525Z 36017KT 06/M05 A3019 RMK A01 T00571045  RH  048%=      5-min Rain = 0
KSM2 241526Z 01017KT 06/M04 A3019 RMK A01 T00591044  RH  047%=      5-min Rain = 0
KSM2 241527Z 01017KT 06/M05 A3019 RMK A01 T00591045  RH  047%=      5-min Rain = 0
KSM2 241528Z 36020KT 06/M05 A3019 RMK A01 T00581045  RH  047%=      5-min Rain = 0
KSM2 241529Z 01016KT 06/M05 A3019 RMK A01 T00571046  RH  047%=      5-min Rain = 0
KSM2 241530Z 01018KT 06/M05 A3019 RMK A01 T00581045  RH  048%=      5-min Rain = 0
KSM2 241531Z 01017KT 06/M05 A3019 RMK A01 T00581046  RH  047%=      5-min Rain = 0
KSM2 241532Z 02017KT 06/M05 A3019 RMK A01 T00581045  RH  047%=      5-min Rain = 0
KSM2 241533Z 01016KT 06/M05 A3019 RMK A01 T00581045  RH  048%=      5-min Rain = 0
KSM2 241534Z 00016KT 06/M05 A3019 RMK A01 T00591045  RH  047%=      5-min Rain = 0
KSM2 241535Z 00017KT 06/M04 A3019 RMK A01 T00591044  RH  047%=      5-min Rain = 0
KSM2 241536Z 01013KT 06/M04 A3019 RMK A01 T00611043  RH  047%=      5-min Rain = 0
KSM2 241537Z 01012KT 06/M04 A3019 RMK A01 T00641041  RH  047%=      5-min Rain = 0
KSM2 241538Z 01017KT 07/M04 A3019 RMK A01 T00661041  RH  046%=      5-min Rain = 0
KSM2 241539Z 01017KT 06/M04 A3019 RMK A01 T00641044  RH  046%=      5-min Rain = 0
KSM2 241540Z 01017KT 06/M05 A3019 RMK A01 T00621045  RH  046%=      5-min Rain = 0
KSM2 241541Z 01017KT 06/M05 A3019 RMK A01 T00611045  RH  047%=      5-min Rain = 0
KSM2 241542Z 01016G23KT 06/M04 A3019 RMK A01 T00611044  RH  047%=      5-min Rain = 0
KSM2 241543Z 01016KT 06/M04 A3019 RMK A01 T00621043  RH  047%=      5-min Rain = 0
KSM2 241544Z 01015KT 06/M04 A3019 RMK A01 T00621044  RH  047%=      5-min Rain = 0
KSM2 241545Z 02016KT 06/M04 A3019 RMK A01 T00641041  RH  047%=      5-min Rain = 0
KSM2 241546Z 02013KT 07/M04 A3019 RMK A01 T00661042  RH  046%=      5-min Rain = 0
KSM2 241547Z 01014G19KT 07/M04 A3019 RMK A01 T00661042  RH  046%=      5-min Rain = 0
KSM2 241548Z 00017KT 07/M04 A3019 RMK A01 T00661044  RH  045%=      5-min Rain = 0
KSM2 241549Z 00017KT 07/M04 A302 RMK A01 T00651044  RH  046%=      5-min Rain = 0
KSM2 241550Z 01017KT 07/M04 A302 RMK A01 T00651044  RH  046%=      5-min Rain = 0
KSM2 241551Z 01016KT 07/M05 A302 RMK A01 T00651045  RH  046%=      5-min Rain = 0
KSM2 241552Z 02015KT 06/M04 A302 RMK A01 T00641043  RH  046%=      5-min Rain = 0
KSM2 241553Z 02015KT 07/M04 A302 RMK A01 T00671042  RH  046%=      5-min Rain = 0
KSM2 241554Z 02013KT 07/M04 A302 RMK A01 T00681042  RH  045%=      5-min Rain = 0
KSM2 241555Z 01013KT 07/M04 A302 RMK A01 T00711040  RH  045%=      5-min Rain = 0
KSM2 241556Z 01016KT 07/M04 A302 RMK A01 T00731041  RH  044%=      5-min Rain = 0
KSM2 241557Z 02016KT 07/M05 A302 RMK A01 T00701045  RH  044%=      5-min Rain = 0
KSM2 241558Z 02018KT 07/M04 A302 RMK A01 T00681044  RH  045%=      5-min Rain = 0
KSM2 241559Z 02016KT 07/M04 A302 RMK A01 T00671044  RH  045%=      5-min Rain = 0
KSM2 241600Z 01014KT 07/M04 A302 RMK A01 T00671044  RH  045%=      5-min Rain = 0
KSM2 241601Z 01014KT 07/M04 A302 RMK A01 T00691043  RH  045%=      5-min Rain = 0
KSM2 241602Z 02016G21KT 07/M04 A302 RMK A01 T00711043  RH  044%=      5-min Rain = 0
KSM2 241603Z 02014KT 07/M04 A302 RMK A01 T00701044  RH  044%=      5-min Rain = 0
KSM2 241604Z 02015KT 07/M04 A302 RMK A01 T00701044  RH  044%=      5-min Rain = 0
KSM2 241605Z 01015KT 07/M05 A302 RMK A01 T00701045  RH  044%=      5-min Rain = 0
KSM2 241606Z 02014G19KT 07/M05 A302 RMK A01 T00691045  RH  044%=      5-min Rain = 0
KSM2 241607Z 02013KT 07/M04 A302 RMK A01 T00701044  RH  044%=      5-min Rain = 0
KSM2 241608Z 01015KT 07/M04 A302 RMK A01 T00721044  RH  044%=      5-min Rain = 0
KSM2 241609Z 00014KT 07/M05 A302 RMK A01 T00701046  RH  043%=      5-min Rain = 0
KSM2 241610Z 01015KT 07/M05 A302 RMK A01 T00691046  RH  044%=      5-min Rain = 0
KSM2 241611Z 02015KT 07/M05 A302 RMK A01 T00701045  RH  044%=      5-min Rain = 0
KSM2 241612Z 00015KT 07/M05 A302 RMK A01 T00701046  RH  043%=      5-min Rain = 0
KSM2 241613Z 00016KT 07/M05 A302 RMK A01 T00701047  RH  043%=      5-min Rain = 0
KSM2 241614Z 01013G19KT 07/M05 A302 RMK A01 T00681048  RH  043%=      5-min Rain = 0
KSM2 241615Z 01016KT 07/M05 A302 RMK A01 T00701046  RH  043%=      5-min Rain = 0
KSM2 241616Z 01015KT 07/M05 A302 RMK A01 T00711046  RH  043%=      5-min Rain = 0
KSM2 241617Z 01016KT 07/M05 A302 RMK A01 T00701048  RH  043%=      5-min Rain = 0
KSM2 241618Z 02014KT 07/M05 A302 RMK A01 T00711046  RH  043%=      5-min Rain = 0
KSM2 241619Z 01014KT 07/M05 A302 RMK A01 T00731046  RH  042%=      5-min Rain = 0
KSM2 241620Z 01016KT 07/M05 A302 RMK A01 T00731046  RH  043%=      5-min Rain = 0
KSM2 241621Z 02017KT 07/M05 A302 RMK A01 T00741046  RH  042%=      5-min Rain = 0
KSM2 241622Z 02016KT 07/M05 A302 RMK A01 T00741047  RH  042%=      5-min Rain = 0
KSM2 241623Z 02014KT 07/M05 A302 RMK A01 T00731046  RH  042%=      5-min Rain = 0
KSM2 241624Z 03016KT 07/M05 A302 RMK A01 T00731046  RH  043%=      5-min Rain = 0
KSM2 241625Z 02013KT 08/M04 A302 RMK A01 T00771043  RH  042%=      5-min Rain = 0
KSM2 241626Z 02016KT 08/M04 A302 RMK A01 T00791043  RH  042%=      5-min Rain = 0
KSM2 241627Z 01014KT 08/M05 A302 RMK A01 T00781047  RH  041%=      5-min Rain = 0
KSM2 241628Z 02013G18KT 08/M04 A302 RMK A01 T00771044  RH  042%=      5-min Rain = 0
KSM2 241629Z 01016KT 08/M05 A302 RMK A01 T00791045  RH  041%=      5-min Rain = 0
KSM2 241630Z 01013KT 08/M05 A302 RMK A01 T00761047  RH  041%=      5-min Rain = 0
KSM2 241631Z 02017KT 08/M05 A302 RMK A01 T00751047  RH  042%=      5-min Rain = 0
KSM2 241632Z 02014KT 08/M05 A302 RMK A01 T00751047  RH  042%=      5-min Rain = 0
KSM2 241633Z 03016KT 08/M05 A302 RMK A01 T00761045  RH  042%=      5-min Rain = 0
KSM2 241634Z 03015KT 08/M04 A302 RMK A01 T00801043  RH  041%=      5-min Rain = 0
KSM2 241635Z 01013KT 08/M05 A302 RMK A01 T00811045  RH  041%=      5-min Rain = 0
KSM2 241636Z 01016KT 08/M05 A302 RMK A01 T00791046  RH  041%=      5-min Rain = 0
KSM2 241637Z 02016KT 08/M05 A302 RMK A01 T00781046  RH  041%=      5-min Rain = 0
KSM2 241638Z 03016KT 08/M04 A302 RMK A01 T00811043  RH  041%=      5-min Rain = 0
KSM2 241639Z 02014KT 08/M05 A302 RMK A01 T00811046  RH  040%=      5-min Rain = 0
KSM2 241640Z 01014KT 08/M05 A302 RMK A01 T00781047  RH  041%=      5-min Rain = 0
KSM2 241641Z 01015KT 08/M05 A302 RMK A01 T00771046  RH  041%=      5-min Rain = 0
KSM2 241642Z 02015G21KT 08/M05 A302 RMK A01 T00771046  RH  041%=      5-min Rain = 0
KSM2 241643Z 03016KT 08/M05 A302 RMK A01 T00781045  RH  041%=      5-min Rain = 0
KSM2 241644Z 03014KT 08/M04 A302 RMK A01 T00801044  RH  041%=      5-min Rain = 0
KSM2 241645Z 03018KT 08/M04 A302 RMK A01 T00831044  RH  040%=      5-min Rain = 0
KSM2 241646Z 03017KT 08/M05 A302 RMK A01 T00811046  RH  040%=      5-min Rain = 0
KSM2 241647Z 03016KT 08/M05 A302 RMK A01 T00821046  RH  040%=      5-min Rain = 0
KSM2 241648Z 03016KT 08/M05 A302 RMK A01 T00821046  RH  040%=      5-min Rain = 0
KSM2 241649Z 03015KT 08/M05 A302 RMK A01 T00811046  RH  040%=      5-min Rain = 0
KSM2 241650Z 02014KT 08/M05 A302 RMK A01 T00811046  RH  040%=      5-min Rain = 0
KSM2 241651Z 03015KT 08/M05 A302 RMK A01 T00811045  RH  040%=      5-min Rain = 0
KSM2 241652Z 02013KT 08/M05 A302 RMK A01 T00811046  RH  040%=      5-min Rain = 0
KSM2 241653Z 03014KT 08/M04 A302 RMK A01 T00821043  RH  041%=      5-min Rain = 0
KSM2 241654Z 02017KT 09/M04 A302 RMK A01 T00871041  RH  040%=      5-min Rain = 0
KSM2 241655Z 03016KT 09/M04 A302 RMK A01 T00871044  RH  039%=      5-min Rain = 0
KSM2 241656Z 02013KT 09/M04 A302 RMK A01 T00851044  RH  040%=      5-min Rain = 0
KSM2 241657Z 02013KT 09/M04 A302 RMK A01 T00861043  RH  040%=      5-min Rain = 0
KSM2 241658Z 04015KT 09/M04 A3019 RMK A01 T00881044  RH  039%=      5-min Rain = 0
KSM2 241659Z 03014KT 09/M04 A3019 RMK A01 T00871044  RH  039%=      5-min Rain = 0
KSM2 241700Z 02013KT 09/M05 A3019 RMK A01 T00871045  RH  039%=      5-min Rain = 0
KSM2 241701Z 02017KT 09/M04 A3019 RMK A01 T00871043  RH  039%=      5-min Rain = 0
KSM2 241702Z 02014KT 09/M05 A302 RMK A01 T00881045  RH  039%=      5-min Rain = 0
KSM2 241703Z 02013KT 09/M05 A3019 RMK A01 T00851046  RH  039%=      5-min Rain = 0
KSM2 241704Z 03018KT 09/M04 A3019 RMK A01 T00861043  RH  040%=      5-min Rain = 0
KSM2 241705Z 03015KT 09/M04 A302 RMK A01 T00891043  RH  039%=      5-min Rain = 0
KSM2 241706Z 02015KT 09/M04 A302 RMK A01 T00901044  RH  039%=      5-min Rain = 0
KSM2 241707Z 02014KT 09/M05 A302 RMK A01 T00881045  RH  039%=      5-min Rain = 0
KSM2 241708Z 01017KT 09/M04 A3019 RMK A01 T00891043  RH  039%=      5-min Rain = 0
KSM2 241709Z 02014KT 09/M05 A3019 RMK A01 T00881045  RH  039%=      5-min Rain = 0
KSM2 241710Z 03013KT 09/M04 A302 RMK A01 T00861044  RH  039%=      5-min Rain = 0
KSM2 241711Z 03011KT 09/M04 A302 RMK A01 T00891042  RH  039%=      5-min Rain = 0
KSM2 241712Z 02017KT 09/M04 A3019 RMK A01 T00911042  RH  039%=      5-min Rain = 0
KSM2 241713Z 01016KT 09/M05 A3019 RMK A01 T00891046  RH  038%=      5-min Rain = 0
KSM2 241714Z 01014KT 09/M05 A3019 RMK A01 T00881045  RH  039%=      5-min Rain = 0
KSM2 241715Z 01016KT 09/M04 A3019 RMK A01 T00891044  RH  039%=      5-min Rain = 0
KSM2 241716Z 02015KT 09/M05 A3019 RMK A01 T00901045  RH  038%=      5-min Rain = 0
KSM2 241717Z 02014KT 09/M04 A3019 RMK A01 T00911044  RH  038%=      5-min Rain = 0
KSM2 241718Z 01012KT 09/M05 A3019 RMK A01 T00921045  RH  038%=      5-min Rain = 0
KSM2 241719Z 03015KT 09/M04 A3019 RMK A01 T00911044  RH  038%=      5-min Rain = 0
KSM2 241720Z 03015KT 09/M05 A3019 RMK A01 T00921045  RH  038%=      5-min Rain = 0
KSM2 241721Z 03012KT 09/M05 A3019 RMK A01 T00921046  RH  037%=      5-min Rain = 0
KSM2 241722Z 05011KT 09/M04 A3019 RMK A01 T00911044  RH  038%=      5-min Rain = 0
KSM2 241723Z 03011KT 10/M04 A3019 RMK A01 T00951040  RH  038%=      5-min Rain = 0
KSM2 241724Z 03016KT 10/M04 A3019 RMK A01 T01011038  RH  037%=      5-min Rain = 0
KSM2 241725Z 03013KT 10/M04 A3019 RMK A01 T01011041  RH  036%=      5-min Rain = 0
KSM2 241726Z 04014KT 10/M04 A3019 RMK A01 T01021043  RH  036%=      5-min Rain = 0
KSM2 241727Z 04012KT 10/M05 A3019 RMK A01 T00991045  RH  036%=      5-min Rain = 0
KSM2 241728Z 04012KT 10/M04 A3019 RMK A01 T00981044  RH  037%=      5-min Rain = 0
KSM2 241729Z 02015KT 10/M04 A3019 RMK A01 T00991042  RH  037%=      5-min Rain = 0
KSM2 241730Z 03013KT 10/M05 A3019 RMK A01 T00961046  RH  036%=      5-min Rain = 0
KSM2 241731Z 02013KT 10/M05 A3019 RMK A01 T00951045  RH  037%=      5-min Rain = 0
KSM2 241732Z 02014KT 10/M04 A3019 RMK A01 T00961044  RH  037%=      5-min Rain = 0
KSM2 241733Z 01011KT 10/M04 A3019 RMK A01 T00961044  RH  037%=      5-min Rain = 0
KSM2 241734Z 01013KT 10/M04 A3019 RMK A01 T00961044  RH  037%=      5-min Rain = 0
KSM2 241735Z 03015KT 10/M04 A3019 RMK A01 T00961044  RH  037%=      5-min Rain = 0
KSM2 241736Z 03014KT 10/M04 A3019 RMK A01 T00991043  RH  037%=      5-min Rain = 0
KSM2 241737Z 04014KT 10/M04 A3019 RMK A01 T01011042  RH  036%=      5-min Rain = 0
KSM2 241738Z 03010KT 10/M04 A3019 RMK A01 T01001043  RH  036%=      5-min Rain = 0
KSM2 241739Z 02014KT 10/M04 A3019 RMK A01 T00991043  RH  037%=      5-min Rain = 0
KSM2 241740Z 03012KT 10/M05 A3019 RMK A01 T01001045  RH  036%=      5-min Rain = 0
KSM2 241741Z 04011KT 10/M04 A3019 RMK A01 T01001043  RH  036%=      5-min Rain = 0
KSM2 241742Z 03015KT 10/M04 A3019 RMK A01 T01021042  RH  036%=      5-min Rain = 0
KSM2 241743Z 03014KT 10/M04 A3019 RMK A01 T01031043  RH  036%=      5-min Rain = 0
KSM2 241744Z 02013KT 10/M04 A3019 RMK A01 T01021043  RH  036%=      5-min Rain = 0
KSM2 241745Z 04009KT 10/M04 A3019 RMK A01 T01011043  RH  036%=      5-min Rain = 0
KSM2 241746Z 03012KT 10/M04 A3019 RMK A01 T01021041  RH  036%=      5-min Rain = 0
KSM2 241747Z 01011KT 11/M04 A3019 RMK A01 T01051041  RH  036%=      5-min Rain = 0
KSM2 241748Z 02013KT 11/M04 A3018 RMK A01 T01061042  RH  035%=      5-min Rain = 0
KSM2 241749Z 02013KT 11/M04 A3018 RMK A01 T01051044  RH  035%=      5-min Rain = 0
KSM2 241750Z 03015G20KT 11/M04 A3018 RMK A01 T01051042  RH  035%=      5-min Rain = 0
KSM2 241751Z 04015KT 11/M04 A3018 RMK A01 T01061043  RH  035%=      5-min Rain = 0
KSM2 241752Z 04015KT 11/M04 A3018 RMK A01 T01061042  RH  035%=      5-min Rain = 0
KSM2 241753Z 03017KT 11/M04 A3018 RMK A01 T01081044  RH  034%=      5-min Rain = 0
KSM2 241754Z 04016KT 11/M05 A3018 RMK A01 T01081049  RH  033%=      5-min Rain = 0
KSM2 241755Z 05011KT 11/M05 A3018 RMK A01 T01071049  RH  033%=      5-min Rain = 0
KSM2 241756Z 05011KT 11/M05 A3018 RMK A01 T01061047  RH  034%=      5-min Rain = 0
KSM2 241757Z 05009KT 11/M05 A3018 RMK A01 T01061047  RH  034%=      5-min Rain = 0
KSM2 241758Z 06013KT 11/M05 A3018 RMK A01 T01061046  RH  034%=      5-min Rain = 0
KSM2 241759Z 03014KT 11/M04 A3018 RMK A01 T01101044  RH  034%=      5-min Rain = 0
KSM2 241800Z 04014KT 11/M04 A3018 RMK A01 T01131044  RH  033%=      5-min Rain = 0
KSM2 241801Z 05010KT 11/M04 A3018 RMK A01 T01121044  RH  033%=      5-min Rain = 0
KSM2 241802Z 04010KT 11/M04 A3018 RMK A01 T01111044  RH  033%=      5-min Rain = 0
KSM2 241803Z 04012KT 11/M04 A3018 RMK A01 T01111043  RH  034%=      5-min Rain = 0
KSM2 241804Z 04015KT 11/M05 A3018 RMK A01 T01131047  RH  032%=      5-min Rain = 0
KSM2 241805Z 04015KT 12/M05 A3018 RMK A01 T01161047  RH  032%=      5-min Rain = 0
KSM2 241806Z 04012KT 12/M05 A3018 RMK A01 T01151051  RH  031%=      5-min Rain = 0
KSM2 241807Z 04012KT 11/M05 A3018 RMK A01 T01111051  RH  032%=      5-min Rain = 0
KSM2 241808Z 05011KT 11/M05 A3018 RMK A01 T01121047  RH  032%=      5-min Rain = 0
KSM2 241809Z 04014KT 11/M05 A3018 RMK A01 T01141045  RH  033%=      5-min Rain = 0
KSM2 241810Z 04013KT 12/M05 A3018 RMK A01 T01151051  RH  031%=      5-min Rain = 0
KSM2 241811Z 04015KT 11/M05 A3018 RMK A01 T01141049  RH  031%=      5-min Rain = 0
KSM2 241812Z 04013KT 12/M05 A3018 RMK A01 T01171051  RH  031%=      5-min Rain = 0
KSM2 241813Z 04011G16KT 11/M05 A3018 RMK A01 T01141052  RH  031%=      5-min Rain = 0
KSM2 241814Z 05013KT 12/M05 A3018 RMK A01 T01191048  RH  031%=      5-min Rain = 0
KSM2 241815Z 06011KT 12/M05 A3018 RMK A01 T01181053  RH  030%=      5-min Rain = 0
KSM2 241816Z 05012KT 12/M05 A3018 RMK A01 T01171049  RH  031%=      5-min Rain = 0
KSM2 241817Z 05011KT 12/M05 A3018 RMK A01 T01171050  RH  031%=      5-min Rain = 0
KSM2 241818Z 07011KT 12/M05 A3018 RMK A01 T01151052  RH  030%=      5-min Rain = 0
KSM2 241819Z 05013KT 12/M05 A3018 RMK A01 T01161052  RH  031%=      5-min Rain = 0
KSM2 241820Z 04014KT 12/M05 A3017 RMK A01 T01151049  RH  031%=      5-min Rain = 0
KSM2 241821Z 05014KT 11/M05 A3017 RMK A01 T01131047  RH  032%=      5-min Rain = 0
KSM2 241822Z 05012KT 11/M05 A3018 RMK A01 T01131049  RH  032%=      5-min Rain = 0
KSM2 241823Z 05012KT 11/M05 A3017 RMK A01 T01121048  RH  032%=      5-min Rain = 0
KSM2 241824Z 04011KT 11/M05 A3017 RMK A01 T01121048  RH  032%=      5-min Rain = 0
KSM2 241825Z 05011KT 11/M05 A3017 RMK A01 T01141047  RH  032%=      5-min Rain = 0
KSM2 241826Z 06014KT 12/M05 A3017 RMK A01 T01191046  RH  031%=      5-min Rain = 0
KSM2 241827Z 05014KT 12/M05 A3017 RMK A01 T01191050  RH  030%=      5-min Rain = 0
KSM2 241828Z 05015KT 12/M05 A3017 RMK A01 T01201050  RH  030%=      5-min Rain = 0
KSM2 241829Z 04013KT 12/M05 A3017 RMK A01 T01171053  RH  030%=      5-min Rain = 0
KSM2 241830Z 06012KT 12/M05 A3017 RMK A01 T01151052  RH  031%=      5-min Rain = 0
KSM2 241831Z 06009KT 12/M05 A3017 RMK A01 T01151050  RH  031%=      5-min Rain = 0
KSM2 241832Z 05008KT 12/M05 A3017 RMK A01 T01161047  RH  032%=      5-min Rain = 0
KSM2 241833Z 06013KT 12/M05 A3017 RMK A01 T01181045  RH  032%=      5-min Rain = 0
KSM2 241834Z 07012KT 12/M05 A3017 RMK A01 T01211047  RH  031%=      5-min Rain = 0
KSM2 241835Z 07013KT 13/M05 A3017 RMK A01 T01261046  RH  030%=      5-min Rain = 0
KSM2 241836Z 06013KT 13/M05 A3017 RMK A01 T01271049  RH  029%=      5-min Rain = 0
KSM2 241837Z 08012KT 12/M05 A3017 RMK A01 T01211053  RH  029%=      5-min Rain = 0
KSM2 241838Z 08011KT 12/M05 A3017 RMK A01 T01221051  RH  030%=      5-min Rain = 0
KSM2 241839Z 08010KT 13/M05 A3017 RMK A01 T01251048  RH  030%=      5-min Rain = 0
KSM2 241840Z 05012KT 13/M05 A3017 RMK A01 T01281046  RH  029%=      5-min Rain = 0
KSM2 241841Z 05012KT 13/M05 A3017 RMK A01 T01251049  RH  029%=      5-min Rain = 0
KSM2 241842Z 04010KT 12/M05 A3017 RMK A01 T01201050  RH  030%=      5-min Rain = 0
KSM2 241843Z 03008KT 12/M05 A3017 RMK A01 T01191049  RH  030%=      5-min Rain = 0
KSM2 241844Z 06013KT 12/M05 A3017 RMK A01 T01181049  RH  031%=      5-min Rain = 0
KSM2 241845Z 06013KT 12/M05 A3017 RMK A01 T01211051  RH  030%=      5-min Rain = 0
KSM2 241846Z 06011KT 12/M05 A3017 RMK A01 T01211052  RH  029%=      5-min Rain = 0
KSM2 241847Z 06010KT 12/M05 A3017 RMK A01 T01231049  RH  030%=      5-min Rain = 0
KSM2 241848Z 05011KT 12/M05 A3017 RMK A01 T01241050  RH  029%=      5-min Rain = 0
KSM2 241849Z 07011KT 12/M05 A3017 RMK A01 T01241049  RH  029%=      5-min Rain = 0
KSM2 241850Z 08011KT 13/M05 A3017 RMK A01 T01281049  RH  029%=      5-min Rain = 0
KSM2 241851Z 09010KT 13/M05 A3017 RMK A01 T01281048  RH  029%=      5-min Rain = 0
KSM2 241852Z 08009KT 13/M05 A3017 RMK A01 T01301049  RH  028%=      5-min Rain = 0
KSM2 241853Z 08006KT 13/M05 A3017 RMK A01 T01291048  RH  029%=      5-min Rain = 0
KSM2 241854Z 09010KT 13/M05 A3017 RMK A01 T01311046  RH  029%=      5-min Rain = 0
KSM2 241855Z 08010KT 14/M05 A3017 RMK A01 T01361047  RH  028%=      5-min Rain = 0
KSM2 241856Z 06011KT 14/M05 A3017 RMK A01 T01351048  RH  028%=      5-min Rain = 0
KSM2 241857Z 06007KT 13/M05 A3017 RMK A01 T01291052  RH  028%=      5-min Rain = 0
KSM2 241858Z 05012KT 13/M05 A3017 RMK A01 T01271048  RH  029%=      5-min Rain = 0
KSM2 241859Z 04013KT 13/M05 A3017 RMK A01 T01271049  RH  029%=      5-min Rain = 0
KSM2 241900Z 04011KT 13/M05 A3017 RMK A01 T01261049  RH  029%=      5-min Rain = 0
KSM2 241901Z 05007KT 13/M05 A3017 RMK A01 T01251051  RH  029%=      5-min Rain = 0
KSM2 241902Z 05007KT 12/M05 A3017 RMK A01 T01231051  RH  029%=      5-min Rain = 0
KSM2 241903Z 08005KT 12/M05 A3016 RMK A01 T01221050  RH  030%=      5-min Rain = 0
KSM2 241904Z 06010G15KT 12/M05 A3016 RMK A01 T01241049  RH  030%=      5-min Rain = 0
KSM2 241905Z 05011KT 13/M05 A3016 RMK A01 T01251050  RH  029%=      5-min Rain = 0
KSM2 241906Z 04014KT 13/M05 A3016 RMK A01 T01261049  RH  029%=      5-min Rain = 0
KSM2 241907Z 04011KT 13/M05 A3016 RMK A01 T01291049  RH  029%=      5-min Rain = 0
KSM2 241908Z 07009KT 13/M05 A3016 RMK A01 T01281050  RH  029%=      5-min Rain = 0
KSM2 241909Z 08010KT 13/M05 A3016 RMK A01 T01341049  RH  028%=      5-min Rain = 0
KSM2 241910Z 05010KT 14/M05 A3016 RMK A01 T01371052  RH  027%=      5-min Rain = 0
KSM2 241911Z 06009KT 14/M05 A3016 RMK A01 T01381050  RH  027%=      5-min Rain = 0
KSM2 241912Z 04010KT 14/M05 A3016 RMK A01 T01361050  RH  027%=      5-min Rain = 0
KSM2 241913Z 05009KT 13/M05 A3016 RMK A01 T01341051  RH  027%=      5-min Rain = 0
KSM2 241914Z 04010KT 13/M05 A3016 RMK A01 T01341049  RH  028%=      5-min Rain = 0
KSM2 241915Z 03010KT 13/M05 A3016 RMK A01 T01331049  RH  028%=      5-min Rain = 0
KSM2 241916Z 05008KT 13/M05 A3016 RMK A01 T01321047  RH  028%=      5-min Rain = 0
KSM2 241917Z 04008KT 13/M05 A3016 RMK A01 T01331049  RH  028%=      5-min Rain = 0
KSM2 241918Z 04009KT 13/M05 A3016 RMK A01 T01321047  RH  028%=      5-min Rain = 0
KSM2 241919Z 04007KT 13/M05 A3016 RMK A01 T01321048  RH  028%=      5-min Rain = 0
KSM2 241920Z 03007KT 13/M05 A3016 RMK A01 T01301048  RH  029%=      5-min Rain = 0
KSM2 241921Z 06006KT 13/M05 A3016 RMK A01 T01301047  RH  029%=      5-min Rain = 0
KSM2 241922Z 05006G11KT 13/M05 A3015 RMK A01 T01311049  RH  028%=      5-min Rain = 0
KSM2 241923Z 07010KT 13/M05 A3015 RMK A01 T01331049  RH  028%=      5-min Rain = 0
KSM2 241924Z 07010KT 14/M05 A3016 RMK A01 T01411050  RH  026%=      5-min Rain = 0
KSM2 241925Z 08008KT 15/M05 A3016 RMK A01 T01461053  RH  025%=      5-min Rain = 0
KSM2 241926Z 06008KT 15/M05 A3016 RMK A01 T01451054  RH  025%=      5-min Rain = 0
KSM2 241927Z 08006KT 14/M05 A3016 RMK A01 T01431053  RH  025%=      5-min Rain = 0
KSM2 241928Z 09009KT 14/M05 A3015 RMK A01 T01441054  RH  025%=      5-min Rain = 0
KSM2 241929Z 07009KT 15/M05 A3015 RMK A01 T01481052  RH  025%=      5-min Rain = 0
KSM2 241930Z 07011KT 15/M05 A3015 RMK A01 T01491052  RH  024%=      5-min Rain = 0
KSM2 241931Z 06010KT 15/M06 A3015 RMK A01 T01461055  RH  024%=      5-min Rain = 0
KSM2 241932Z 05009KT 14/M06 A3015 RMK A01 T01391057  RH  025%=      5-min Rain = 0
KSM2 241933Z 07011KT 13/M06 A3015 RMK A01 T01341057  RH  026%=      5-min Rain = 0
KSM2 241934Z 09009KT 13/M06 A3015 RMK A01 T01341056  RH  026%=      5-min Rain = 0
KSM2 241935Z 07009KT 14/M05 A3015 RMK A01 T01421052  RH  026%=      5-min Rain = 0
KSM2 241936Z 06010KT 14/M06 A3015 RMK A01 T01421055  RH  025%=      5-min Rain = 0
KSM2 241937Z 06010KT 14/M06 A3015 RMK A01 T01391055  RH  026%=      5-min Rain = 0
KSM2 241938Z 08008KT 14/M06 A3015 RMK A01 T01361056  RH  026%=      5-min Rain = 0
KSM2 241939Z 08008KT 14/M06 A3015 RMK A01 T01371055  RH  026%=      5-min Rain = 0
KSM2 241940Z 11010KT 14/M05 A3015 RMK A01 T01391054  RH  026%=      5-min Rain = 0
KSM2 241941Z 11009KT 14/M06 A3015 RMK A01 T01391056  RH  025%=      5-min Rain = 0
KSM2 241942Z 12009KT 14/M06 A3014 RMK A01 T01391055  RH  026%=      5-min Rain = 0
KSM2 241943Z 12006KT 14/M05 A3014 RMK A01 T01391054  RH  026%=      5-min Rain = 0
KSM2 241944Z 10006KT 14/M06 A3014 RMK A01 T01401055  RH  025%=      5-min Rain = 0
KSM2 241945Z 09008KT 14/M06 A3014 RMK A01 T01401055  RH  025%=      5-min Rain = 0
KSM2 241946Z 07010KT 14/M05 A3014 RMK A01 T01421052  RH  026%=      5-min Rain = 0
KSM2 241947Z 07010KT 15/M05 A3014 RMK A01 T01461051  RH  025%=      5-min Rain = 0
KSM2 241948Z 07007KT 15/M05 A3014 RMK A01 T01451054  RH  025%=      5-min Rain = 0
KSM2 241949Z 06008G13KT 14/M05 A3014 RMK A01 T01431052  RH  026%=      5-min Rain = 0
KSM2 241950Z 06010G15KT 14/M05 A3014 RMK A01 T01441052  RH  025%=      5-min Rain = 0
KSM2 241951Z 07009KT 14/M05 A3014 RMK A01 T01421051  RH  026%=      5-min Rain = 0
KSM2 241952Z 06009KT 15/M05 A3013 RMK A01 T01461049  RH  026%=      5-min Rain = 0
KSM2 241953Z 08009KT 14/M05 A3013 RMK A01 T01421054  RH  025%=      5-min Rain = 0
KSM2 241954Z 09009KT 14/M06 A3013 RMK A01 T01381055  RH  026%=      5-min Rain = 0
KSM2 241955Z 09011KT 14/M05 A3013 RMK A01 T01401052  RH  026%=      5-min Rain = 0
KSM2 241956Z 10011KT 14/M05 A3013 RMK A01 T01401052  RH  026%=      5-min Rain = 0
KSM2 241957Z 10013G18KT 14/M05 A3013 RMK A01 T01441050  RH  026%=      5-min Rain = 0
KSM2 241958Z 09013KT 15/M05 A3013 RMK A01 T01471051  RH  025%=      5-min Rain = 0
KSM2 241959Z 09011KT 15/M05 A3013 RMK A01 T01471052  RH  025%=      5-min Rain = 0
KSM2 242000Z 08008KT 15/M05 A3013 RMK A01 T01451052  RH  025%=      5-min Rain = 0
KSM2 242001Z 10011KT 15/M05 A3013 RMK A01 T01451052  RH  025%=      5-min Rain = 0
KSM2 242002Z 11007KT 15/M05 A3013 RMK A01 T01451052  RH  025%=      5-min Rain = 0
KSM2 242003Z 10010KT 15/M05 A3013 RMK A01 T01451050  RH  026%=      5-min Rain = 0
KSM2 242004Z 09011KT 15/M05 A3013 RMK A01 T01461051  RH  025%=      5-min Rain = 0
KSM2 242005Z 10008KT 14/M05 A3013 RMK A01 T01431054  RH  025%=      5-min Rain = 0
KSM2 242006Z 11007KT 14/M05 A3013 RMK A01 T01391054  RH  026%=      5-min Rain = 0
KSM2 242007Z 11012KT 14/M05 A3012 RMK A01 T01391052  RH  026%=      5-min Rain = 0
KSM2 242008Z 11010KT 14/M05 A3013 RMK A01 T01391050  RH  027%=      5-min Rain = 0
KSM2 242009Z 13009KT 14/M05 A3013 RMK A01 T01411050  RH  026%=      5-min Rain = 0
KSM2 242010Z 14007KT 14/M05 A3013 RMK A01 T01421051  RH  026%=      5-min Rain = 0
KSM2 242011Z 12004KT 14/M05 A3012 RMK A01 T01401052  RH  026%=      5-min Rain = 0
KSM2 242012Z 10009KT 14/M05 A3012 RMK A01 T01411049  RH  026%=      5-min Rain = 0
KSM2 242013Z 08009KT 15/M05 A3012 RMK A01 T01451050  RH  026%=      5-min Rain = 0
KSM2 242014Z 08004KT 15/M05 A3012 RMK A01 T01471050  RH  025%=      5-min Rain = 0
KSM2 242015Z 09009KT 15/M05 A3012 RMK A01 T01461049  RH  026%=      5-min Rain = 0
KSM2 242016Z 09008G14KT 15/M05 A3012 RMK A01 T01501046  RH  025%=      5-min Rain = 0
KSM2 242017Z 05008KT 15/M05 A3012 RMK A01 T01531047  RH  025%=      5-min Rain = 0
KSM2 242018Z 05007G12KT 15/M05 A3012 RMK A01 T01481050  RH  025%=      5-min Rain = 0
KSM2 242019Z 08008KT 14/M05 A3012 RMK A01 T01441050  RH  026%=      5-min Rain = 0
KSM2 242020Z 09010KT 15/M05 A3012 RMK A01 T01451049  RH  026%=      5-min Rain = 0
KSM2 242021Z 10011KT 15/M05 A3012 RMK A01 T01481050  RH  025%=      5-min Rain = 0
KSM2 242022Z 09012KT 15/M05 A3012 RMK A01 T01481048  RH  025%=      5-min Rain = 0
KSM2 242023Z 09013KT 15/M05 A3012 RMK A01 T01521049  RH  025%=      5-min Rain = 0
KSM2 242024Z 09010KT 15/M05 A3012 RMK A01 T01511051  RH  024%=      5-min Rain = 0
KSM2 242025Z 10007KT 15/M05 A3012 RMK A01 T01471052  RH  025%=      5-min Rain = 0
KSM2 242026Z 09011KT 15/M05 A3012 RMK A01 T01471051  RH  025%=      5-min Rain = 0
KSM2 242027Z 08008KT 15/M05 A3012 RMK A01 T01471051  RH  025%=      5-min Rain = 0
KSM2 242028Z 08009KT 15/M05 A3012 RMK A01 T01481050  RH  025%=      5-min Rain = 0
KSM2 242029Z 08007KT 15/M05 A3012 RMK A01 T01471052  RH  025%=      5-min Rain = 0
KSM2 242030Z 07003KT 15/M05 A3012 RMK A01 T01461052  RH  025%=      5-min Rain = 0
KSM2 242031Z 09006G11KT 15/M05 A3012 RMK A01 T01451051  RH  025%=      5-min Rain = 0
KSM2 242032Z 10010KT 15/M05 A3012 RMK A01 T01451051  RH  025%=      5-min Rain = 0
KSM2 242033Z 09009KT 15/M05 A3012 RMK A01 T01471051  RH  025%=      5-min Rain = 0
KSM2 242034Z 08005KT 15/M05 A3012 RMK A01 T01471052  RH  025%=      5-min Rain = 0
KSM2 242035Z 08004KT 15/M05 A3012 RMK A01 T01461052  RH  025%=      5-min Rain = 0
KSM2 242036Z 10005G12KT 15/M05 A3012 RMK A01 T01461052  RH  025%=      5-min Rain = 0
KSM2 242037Z 11011KT 15/M05 A3011 RMK A01 T01481050  RH  025%=      5-min Rain = 0
KSM2 242038Z 11010KT 15/M05 A3011 RMK A01 T01491050  RH  025%=      5-min Rain = 0
KSM2 242039Z 09011KT 15/M05 A3012 RMK A01 T01521050  RH  024%=      5-min Rain = 0
KSM2 242040Z 10008KT 15/M05 A3011 RMK A01 T01501054  RH  024%=      5-min Rain = 0
KSM2 242041Z 11005KT 15/M06 A3011 RMK A01 T01451056  RH  024%=      5-min Rain = 0
KSM2 242042Z 08002KT 14/M06 A3011 RMK A01 T01421055  RH  025%=      5-min Rain = 0
KSM2 242043Z 12006KT 14/M05 A3011 RMK A01 T01421054  RH  025%=      5-min Rain = 0
KSM2 242044Z 12007KT 14/M05 A3011 RMK A01 T01441052  RH  025%=      5-min Rain = 0
KSM2 242045Z 10008KT 15/M05 A3011 RMK A01 T01471052  RH  025%=      5-min Rain = 0
KSM2 242046Z 08006KT 15/M05 A3011 RMK A01 T01511052  RH  024%=      5-min Rain = 0
KSM2 242047Z 07005KT 15/M05 A3011 RMK A01 T01521051  RH  024%=      5-min Rain = 0
KSM2 242048Z 10003KT 16/M05 A3011 RMK A01 T01551050  RH  024%=      5-min Rain = 0
KSM2 242049Z 08003KT 16/M05 A3011 RMK A01 T01561051  RH  024%=      5-min Rain = 0
KSM2 242050Z 09003G10KT 16/M05 A3011 RMK A01 T01551054  RH  023%=      5-min Rain = 0
KSM2 242051Z 10008KT 15/M05 A3011 RMK A01 T01531053  RH  024%=      5-min Rain = 0
KSM2 242052Z 11008KT 15/M05 A3011 RMK A01 T01541053  RH  024%=      5-min Rain = 0
KSM2 242053Z 12009KT 15/M06 A3011 RMK A01 T01531055  RH  024%=      5-min Rain = 0
KSM2 242054Z 12006KT 15/M06 A3011 RMK A01 T01491056  RH  024%=      5-min Rain = 0
KSM2 242055Z 13007KT 15/M06 A3011 RMK A01 T01481055  RH  024%=      5-min Rain = 0
KSM2 242056Z 11007KT 15/M05 A3011 RMK A01 T01491054  RH  024%=      5-min Rain = 0
KSM2 242057Z 12006KT 15/M05 A3011 RMK A01 T01521053  RH  024%=      5-min Rain = 0
KSM2 242058Z 11006KT 15/M06 A3011 RMK A01 T01531055  RH  023%=      5-min Rain = 0
KSM2 242059Z 11006KT 15/M06 A3011 RMK A01 T01501056  RH  024%=      5-min Rain = 0
KSM2 242100Z 11011KT 15/M05 A301 RMK A01 T01521053  RH  024%=      5-min Rain = 0
KSM2 242101Z 10009KT 15/M06 A301 RMK A01 T01531055  RH  023%=      5-min Rain = 0
KSM2 242102Z 11009KT 15/M06 A301 RMK A01 T01501057  RH  023%=      5-min Rain = 0
KSM2 242103Z 11006KT 15/M06 A301 RMK A01 T01511055  RH  024%=      5-min Rain = 0
KSM2 242104Z 08003KT 15/M06 A301 RMK A01 T01531055  RH  023%=      5-min Rain = 0
KSM2 242105Z 10003KT 15/M06 A301 RMK A01 T01531056  RH  023%=      5-min Rain = 0
KSM2 242106Z 09003G8KT 15/M06 A301 RMK A01 T01521057  RH  023%=      5-min Rain = 0
KSM2 242107Z 10008KT 15/M05 A301 RMK A01 T01531054  RH  024%=      5-min Rain = 0
KSM2 242108Z 08008KT 16/M05 A301 RMK A01 T01551053  RH  023%=      5-min Rain = 0
KSM2 242109Z 11005KT 16/M06 A301 RMK A01 T01571055  RH  023%=      5-min Rain = 0
KSM2 242110Z 13006KT 16/M06 A301 RMK A01 T01551056  RH  023%=      5-min Rain = 0
KSM2 242111Z 11008KT 15/M05 A301 RMK A01 T01541054  RH  023%=      5-min Rain = 0
KSM2 242112Z 09011KT 15/M05 A301 RMK A01 T01541053  RH  023%=      5-min Rain = 0
KSM2 242113Z 09010KT 16/M05 A301 RMK A01 T01571054  RH  023%=      5-min Rain = 0
KSM2 242114Z 09009KT 16/M06 A301 RMK A01 T01551055  RH  023%=      5-min Rain = 0
KSM2 242115Z 09006KT 15/M06 A301 RMK A01 T01541056  RH  023%=      5-min Rain = 0
KSM2 242116Z 07009KT 15/M06 A301 RMK A01 T01511055  RH  024%=      5-min Rain = 0
KSM2 242117Z 08009KT 15/M05 A301 RMK A01 T01501054  RH  024%=      5-min Rain = 0
KSM2 242118Z 06005G10KT 15/M05 A301 RMK A01 T01501054  RH  024%=      5-min Rain = 0
KSM2 242119Z 09011KT 15/M05 A301 RMK A01 T01491051  RH  025%=      5-min Rain = 0
KSM2 242120Z 09008KT 15/M05 A301 RMK A01 T01511053  RH  024%=      5-min Rain = 0
KSM2 242121Z 10007KT 15/M05 A301 RMK A01 T01501053  RH  024%=      5-min Rain = 0
KSM2 242122Z 09007KT 15/M05 A301 RMK A01 T01491054  RH  024%=      5-min Rain = 0
KSM2 242123Z 10007KT 15/M05 A301 RMK A01 T01471054  RH  024%=      5-min Rain = 0
KSM2 242124Z 10008KT 15/M05 A301 RMK A01 T01501050  RH  025%=      5-min Rain = 0
KSM2 242125Z 09006KT 15/M05 A301 RMK A01 T01541051  RH  024%=      5-min Rain = 0
KSM2 242126Z 09012KT 16/M05 A301 RMK A01 T01571049  RH  024%=      5-min Rain = 0
KSM2 242127Z 09012KT 16/M05 A301 RMK A01 T01571053  RH  023%=      5-min Rain = 0
KSM2 242128Z 09011KT 15/M05 A301 RMK A01 T01541053  RH  024%=      5-min Rain = 0
KSM2 242129Z 07010KT 16/M05 A301 RMK A01 T01561052  RH  023%=      5-min Rain = 0
KSM2 242130Z 07010KT 15/M05 A301 RMK A01 T01521053  RH  024%=      5-min Rain = 0
KSM2 242131Z 08008KT 15/M05 A301 RMK A01 T01531050  RH  024%=      5-min Rain = 0
KSM2 242132Z 08005KT 16/M05 A301 RMK A01 T01551052  RH  024%=      5-min Rain = 0
KSM2 242133Z 10009KT 16/M05 A301 RMK A01 T01551051  RH  024%=      5-min Rain = 0
KSM2 242134Z 11007KT 16/M05 A301 RMK A01 T01551051  RH  024%=      5-min Rain = 0
KSM2 242135Z 11010KT 15/M05 A301 RMK A01 T01541053  RH  024%=      5-min Rain = 0
KSM2 242136Z 10007KT 15/M05 A301 RMK A01 T01511054  RH  024%=      5-min Rain = 0
KSM2 242137Z 10007KT 15/M05 A301 RMK A01 T01521052  RH  024%=      5-min Rain = 0
KSM2 242138Z 10011KT 16/M05 A301 RMK A01 T01561050  RH  024%=      5-min Rain = 0
KSM2 242139Z 10008KT 16/M05 A301 RMK A01 T01551052  RH  024%=      5-min Rain = 0
KSM2 242140Z 10006KT 15/M05 A301 RMK A01 T01511054  RH  024%=      5-min Rain = 0
KSM2 242141Z 10008KT 15/M05 A301 RMK A01 T01521050  RH  025%=      5-min Rain = 0
KSM2 242142Z 10006KT 16/M05 A301 RMK A01 T01551050  RH  024%=      5-min Rain = 0
KSM2 242143Z 09010KT 16/M05 A301 RMK A01 T01561050  RH  024%=      5-min Rain = 0
KSM2 242144Z 08010KT 16/M05 A301 RMK A01 T01551052  RH  024%=      5-min Rain = 0
KSM2 242145Z 09009KT 16/M05 A301 RMK A01 T01551052  RH  024%=      5-min Rain = 0
KSM2 242146Z 09007KT 15/M05 A301 RMK A01 T01541051  RH  024%=      5-min Rain = 0
KSM2 242147Z 08011KT 16/M05 A301 RMK A01 T01561048  RH  024%=      5-min Rain = 0
KSM2 242148Z 10011KT 16/M05 A301 RMK A01 T01561049  RH  024%=      5-min Rain = 0
KSM2 242149Z 10009KT 15/M05 A301 RMK A01 T01541051  RH  024%=      5-min Rain = 0
KSM2 242150Z 12006KT 15/M05 A301 RMK A01 T01511050  RH  025%=      5-min Rain = 0
KSM2 242151Z 13008KT 15/M05 A301 RMK A01 T01511048  RH  025%=      5-min Rain = 0
KSM2 242152Z 13009KT 15/M05 A301 RMK A01 T01521050  RH  024%=      5-min Rain = 0
KSM2 242153Z 11007KT 15/M05 A301 RMK A01 T01501051  RH  025%=      5-min Rain = 0
KSM2 242154Z 11006KT 15/M05 A301 RMK A01 T01481052  RH  025%=      5-min Rain = 0
KSM2 242155Z 08008KT 15/M05 A301 RMK A01 T01511049  RH  025%=      5-min Rain = 0
KSM2 242156Z 08007KT 15/M05 A301 RMK A01 T01531051  RH  024%=      5-min Rain = 0
KSM2 242157Z 10012KT 15/M05 A301 RMK A01 T01531049  RH  024%=      5-min Rain = 0
KSM2 242158Z 10011KT 15/M05 A301 RMK A01 T01541049  RH  024%=      5-min Rain = 0
KSM2 242159Z 09011KT 15/M05 A301 RMK A01 T01541050  RH  024%=      5-min Rain = 0
KSM2 242200Z 10009KT 15/M05 A301 RMK A01 T01531052  RH  024%=      5-min Rain = 0
KSM2 242201Z 10006KT 15/M05 A301 RMK A01 T01491052  RH  024%=      5-min Rain = 0
KSM2 242202Z 09008KT 15/M05 A301 RMK A01 T01501049  RH  025%=      5-min Rain = 0
KSM2 242203Z 13007KT 15/M05 A301 RMK A01 T01541048  RH  025%=      5-min Rain = 0
KSM2 242204Z 11009KT 15/M05 A301 RMK A01 T01531049  RH  024%=      5-min Rain = 0
KSM2 242205Z 10010KT 15/M05 A301 RMK A01 T01531049  RH  024%=      5-min Rain = 0
KSM2 242206Z 12010KT 15/M05 A301 RMK A01 T01531048  RH  025%=      5-min Rain = 0
KSM2 242207Z 12009KT 15/M05 A301 RMK A01 T01541049  RH  024%=      5-min Rain = 0
KSM2 242208Z 13007KT 15/M05 A301 RMK A01 T01521050  RH  024%=      5-min Rain = 0
KSM2 242209Z 14004KT 15/M05 A301 RMK A01 T01501050  RH  025%=      5-min Rain = 0
KSM2 242210Z 13004KT 15/M05 A301 RMK A01 T01491051  RH  025%=      5-min Rain = 0
KSM2 242211Z 14003KT 15/M05 A301 RMK A01 T01481050  RH  025%=      5-min Rain = 0
KSM2 242212Z 10003KT 15/M05 A301 RMK A01 T01491048  RH  025%=      5-min Rain = 0
KSM2 242213Z 11007KT 15/M05 A301 RMK A01 T01531047  RH  025%=      5-min Rain = 0
KSM2 242214Z 11009KT 15/M05 A301 RMK A01 T01541048  RH  024%=      5-min Rain = 0
KSM2 242215Z 11010KT 16/M05 A301 RMK A01 T01551047  RH  024%=      5-min Rain = 0
KSM2 242216Z 11008KT 16/M05 A3009 RMK A01 T01561049  RH  024%=      5-min Rain = 0
KSM2 242217Z 12007KT 15/M05 A3009 RMK A01 T01541048  RH  024%=      5-min Rain = 0
KSM2 242218Z 11008KT 15/M05 A3009 RMK A01 T01541048  RH  025%=      5-min Rain = 0
KSM2 242219Z 08011KT 16/M05 A3009 RMK A01 T01561045  RH  025%=      5-min Rain = 0
KSM2 242220Z 08012KT 16/M05 A3009 RMK A01 T01591047  RH  024%=      5-min Rain = 0
KSM2 242221Z 09008KT 16/M05 A3009 RMK A01 T01561048  RH  024%=      5-min Rain = 0
KSM2 242222Z 09010KT 16/M05 A3009 RMK A01 T01571047  RH  024%=      5-min Rain = 0
KSM2 242223Z 14009KT 16/M05 A3009 RMK A01 T01571047  RH  024%=      5-min Rain = 0
KSM2 242224Z 15008KT 15/M05 A3009 RMK A01 T01521050  RH  024%=      5-min Rain = 0
KSM2 242225Z 10012KT 15/M05 A3009 RMK A01 T01501048  RH  025%=      5-min Rain = 0
KSM2 242226Z 09012KT 15/M05 A3009 RMK A01 T01521047  RH  025%=      5-min Rain = 0
KSM2 242227Z 11011KT 15/M05 A3009 RMK A01 T01531048  RH  025%=      5-min Rain = 0
KSM2 242228Z 13011KT 15/M05 A3009 RMK A01 T01531048  RH  025%=      5-min Rain = 0
KSM2 242229Z 11010KT 15/M05 A3009 RMK A01 T01511050  RH  025%=      5-min Rain = 0
KSM2 242230Z 11011KT 15/M05 A3009 RMK A01 T01501049  RH  025%=      5-min Rain = 0
KSM2 242231Z 11009KT 15/M05 A3009 RMK A01 T01511048  RH  025%=      5-min Rain = 0
KSM2 242232Z 12006KT 15/M05 A3009 RMK A01 T01511049  RH  025%=      5-min Rain = 0
KSM2 242233Z 11007KT 15/M05 A3009 RMK A01 T01501049  RH  025%=      5-min Rain = 0
KSM2 242234Z 12006KT 15/M05 A3009 RMK A01 T01501049  RH  025%=      5-min Rain = 0
KSM2 242235Z 10007KT 15/M05 A3009 RMK A01 T01501049  RH  025%=      5-min Rain = 0
KSM2 242236Z 09009KT 15/M05 A3009 RMK A01 T01521049  RH  025%=      5-min Rain = 0
KSM2 242237Z 10011KT 15/M05 A3009 RMK A01 T01541048  RH  025%=      5-min Rain = 0
KSM2 242238Z 10009KT 15/M05 A3009 RMK A01 T01541049  RH  024%=      5-min Rain = 0
KSM2 242239Z 10011KT 15/M05 A3009 RMK A01 T01521050  RH  024%=      5-min Rain = 0
KSM2 242240Z 10010KT 15/M05 A3009 RMK A01 T01531049  RH  025%=      5-min Rain = 0
KSM2 242241Z 10008KT 15/M05 A3009 RMK A01 T01531050  RH  024%=      5-min Rain = 0
KSM2 242242Z 07008KT 15/M05 A3009 RMK A01 T01531050  RH  024%=      5-min Rain = 0
KSM2 242243Z 09009KT 15/M05 A3009 RMK A01 T01541048  RH  024%=      5-min Rain = 0
KSM2 242244Z 11011KT 16/M05 A3009 RMK A01 T01551049  RH  024%=      5-min Rain = 0
KSM2 242245Z 11011KT 15/M05 A3009 RMK A01 T01531050  RH  024%=      5-min Rain = 0
KSM2 242246Z 11007KT 15/M05 A3009 RMK A01 T01511050  RH  024%=      5-min Rain = 0
KSM2 242247Z 09007KT 15/M05 A3009 RMK A01 T01511050  RH  025%=      5-min Rain = 0
KSM2 242248Z 07006KT 15/M05 A3009 RMK A01 T01501050  RH  025%=      5-min Rain = 0
KSM2 242249Z 09008KT 15/M05 A3009 RMK A01 T01501049  RH  025%=      5-min Rain = 0
KSM2 242250Z 10009KT 15/M05 A3009 RMK A01 T01511049  RH  025%=      5-min Rain = 0
KSM2 242251Z 11007KT 15/M05 A3009 RMK A01 T01511051  RH  024%=      5-min Rain = 0
KSM2 242252Z 11009KT 15/M05 A3009 RMK A01 T01491051  RH  025%=      5-min Rain = 0
KSM2 242253Z 10007KT 15/M05 A3009 RMK A01 T01491051  RH  025%=      5-min Rain = 0
KSM2 242254Z 11007KT 15/M05 A3009 RMK A01 T01481052  RH  025%=      5-min Rain = 0
KSM2 242255Z 10006KT 15/M05 A3009 RMK A01 T01481050  RH  025%=      5-min Rain = 0
KSM2 242256Z 11008G13KT 15/M05 A3009 RMK A01 T01511047  RH  025%=      5-min Rain = 0
KSM2 242257Z 12011KT 15/M05 A3009 RMK A01 T01541048  RH  024%=      5-min Rain = 0
KSM2 242258Z 12008KT 15/M05 A3009 RMK A01 T01531050  RH  024%=      5-min Rain = 0
KSM2 242259Z 13008KT 15/M05 A3009 RMK A01 T01511051  RH  024%=      5-min Rain = 0
KSM2 242300Z 14008KT 15/M05 A3009 RMK A01 T01501051  RH  025%=      5-min Rain = 0
KSM2 242301Z 12009KT 15/M05 A3009 RMK A01 T01501051  RH  025%=      5-min Rain = 0
KSM2 242302Z 12008KT 15/M05 A3009 RMK A01 T01501051  RH  025%=      5-min Rain = 0
KSM2 242303Z 13007KT 15/M05 A3009 RMK A01 T01511050  RH  024%=      5-min Rain = 0
KSM2 242304Z 11005KT 15/M05 A3009 RMK A01 T01511052  RH  024%=      5-min Rain = 0
KSM2 242305Z 12004KT 15/M05 A3009 RMK A01 T01511052  RH  024%=      5-min Rain = 0
KSM2 242306Z 12010KT 15/M05 A3009 RMK A01 T01501051  RH  024%=      5-min Rain = 0
KSM2 242307Z 11010KT 15/M05 A3009 RMK A01 T01491053  RH  024%=      5-min Rain = 0
KSM2 242308Z 10010KT 15/M05 A3009 RMK A01 T01461054  RH  025%=      5-min Rain = 0
KSM2 242309Z 10009KT 15/M05 A3009 RMK A01 T01451054  RH  025%=      5-min Rain = 0
KSM2 242310Z 10009KT 15/M05 A3009 RMK A01 T01451053  RH  025%=      5-min Rain = 0
KSM2 242311Z 10009KT 15/M05 A3009 RMK A01 T01471052  RH  025%=      5-min Rain = 0
KSM2 242312Z 11008KT 15/M05 A3009 RMK A01 T01471053  RH  025%=      5-min Rain = 0
KSM2 242313Z 12006KT 15/M05 A3009 RMK A01 T01471052  RH  025%=      5-min Rain = 0
KSM2 242314Z 11005KT 15/M05 A3009 RMK A01 T01481053  RH  025%=      5-min Rain = 0
KSM2 242315Z 13005KT 15/M05 A3009 RMK A01 T01491052  RH  025%=      5-min Rain = 0
KSM2 242316Z 13010KT 15/M05 A3009 RMK A01 T01501051  RH  025%=      5-min Rain = 0
KSM2 242317Z 13009KT 15/M05 A3009 RMK A01 T01491053  RH  024%=      5-min Rain = 0
KSM2 242318Z 12008KT 15/M05 A3009 RMK A01 T01481053  RH  025%=      5-min Rain = 0
KSM2 242319Z 12007KT 15/M05 A3009 RMK A01 T01481052  RH  025%=      5-min Rain = 0
KSM2 242320Z 11008KT 15/M05 A3009 RMK A01 T01471052  RH  025%=      5-min Rain = 0
KSM2 242321Z 11009KT 15/M05 A3009 RMK A01 T01461053  RH  025%=      5-min Rain = 0
KSM2 242322Z 12007KT 14/M06 A3009 RMK A01 T01431055  RH  025%=      5-min Rain = 0
KSM2 242323Z 10007KT 14/M05 A3009 RMK A01 T01431053  RH  025%=      5-min Rain = 0
KSM2 242324Z 10007KT 15/M05 A3009 RMK A01 T01451052  RH  025%=      5-min Rain = 0
KSM2 242325Z 10007KT 15/M05 A3009 RMK A01 T01461053  RH  025%=      5-min Rain = 0
KSM2 242326Z 11006KT 15/M05 A3009 RMK A01 T01451053  RH  025%=      5-min Rain = 0
KSM2 242327Z 09008G13KT 15/M05 A3009 RMK A01 T01451053  RH  025%=      5-min Rain = 0
KSM2 242328Z 11010KT 15/M05 A3009 RMK A01 T01451052  RH  025%=      5-min Rain = 0
KSM2 242329Z 11008KT 15/M05 A3009 RMK A01 T01461051  RH  025%=      5-min Rain = 0
KSM2 242330Z 11007KT 15/M05 A3009 RMK A01 T01451052  RH  025%=      5-min Rain = 0
KSM2 242331Z 11007KT 14/M05 A3009 RMK A01 T01441052  RH  025%=      5-min Rain = 0
KSM2 242332Z 14007KT 14/M05 A3009 RMK A01 T01431052  RH  025%=      5-min Rain = 0
KSM2 242333Z 14007KT 14/M05 A3009 RMK A01 T01431051  RH  026%=      5-min Rain = 0
KSM2 242334Z 14008KT 14/M05 A301 RMK A01 T01431051  RH  026%=      5-min Rain = 0
KSM2 242335Z 12007KT 14/M05 A301 RMK A01 T01441050  RH  026%=      5-min Rain = 0
KSM2 242336Z 12006KT 14/M05 A301 RMK A01 T01441051  RH  026%=      5-min Rain = 0
KSM2 242337Z 12006KT 14/M05 A301 RMK A01 T01441050  RH  026%=      5-min Rain = 0
KSM2 242338Z 13007KT 14/M05 A301 RMK A01 T01441050  RH  026%=      5-min Rain = 0
KSM2 242339Z 11006KT 14/M05 A301 RMK A01 T01441051  RH  026%=      5-min Rain = 0
KSM2 242340Z 11006KT 14/M05 A301 RMK A01 T01431051  RH  026%=      5-min Rain = 0
KSM2 242341Z 10007KT 14/M05 A301 RMK A01 T01431050  RH  026%=      5-min Rain = 0
KSM2 242342Z 11006KT 14/M05 A301 RMK A01 T01431049  RH  026%=      5-min Rain = 0
KSM2 242343Z 10006KT 14/M05 A301 RMK A01 T01421049  RH  026%=      5-min Rain = 0
KSM2 242344Z 11007KT 14/M05 A301 RMK A01 T01401050  RH  026%=      5-min Rain = 0
KSM2 242345Z 11008KT 14/M05 A301 RMK A01 T01401050  RH  026%=      5-min Rain = 0
KSM2 242346Z 11008KT 14/M05 A301 RMK A01 T01401050  RH  026%=      5-min Rain = 0
KSM2 242347Z 10009KT 14/M05 A301 RMK A01 T01411050  RH  026%=      5-min Rain = 0
KSM2 242348Z 11006KT 14/M05 A301 RMK A01 T01411050  RH  026%=      5-min Rain = 0
KSM2 242349Z 11006KT 14/M05 A301 RMK A01 T01411049  RH  026%=      5-min Rain = 0
KSM2 242350Z 11007KT 14/M05 A301 RMK A01 T01411049  RH  026%=      5-min Rain = 0
KSM2 242351Z 10008KT 14/M05 A301 RMK A01 T01411049  RH  026%=      5-min Rain = 0
KSM2 242352Z 10009KT 14/M05 A301 RMK A01 T01401051  RH  026%=      5-min Rain = 0
KSM2 242353Z 10009KT 14/M05 A301 RMK A01 T01391052  RH  026%=      5-min Rain = 0
KSM2 242354Z 10010KT 14/M05 A301 RMK A01 T01371051  RH  027%=      5-min Rain = 0
KSM2 242355Z 10009KT 14/M05 A3009 RMK A01 T01371051  RH  027%=      5-min Rain = 0
KSM2 242356Z 12008KT 14/M05 A3009 RMK A01 T01371050  RH  027%=      5-min Rain = 0
KSM2 242357Z 12007KT 14/M05 A301 RMK A01 T01371050  RH  027%=      5-min Rain = 0
KSM2 242358Z 12006KT 14/M05 A301 RMK A01 T01371051  RH  027%=      5-min Rain = 0
KSM2 242359Z 11006KT 14/M05 A301 RMK A01 T01371052  RH  027%=      5-min Rain = 0
KSM2 250000Z 11006KT 14/M05 A301 RMK A01 T01371051  RH  027%=      5-min Rain = 0
KSM2 250001Z 11007KT 14/M05 A301 RMK A01 T01371051  RH  027%=      5-min Rain = 0
KSM2 250002Z 12007KT 14/M05 A301 RMK A01 T01381051  RH  027%=      5-min Rain = 0
KSM2 250003Z 11007KT 14/M05 A301 RMK A01 T01381051  RH  027%=      5-min Rain = 0
KSM2 250004Z 11007KT 14/M05 A301 RMK A01 T01371051  RH  027%=      5-min Rain = 0
KSM2 250005Z 11007KT 14/M05 A301 RMK A01 T01371050  RH  027%=      5-min Rain = 0
KSM2 250006Z 11008KT 14/M05 A301 RMK A01 T01351051  RH  027%=      5-min Rain = 0
KSM2 250007Z 11007KT 13/M05 A301 RMK A01 T01341051  RH  027%=      5-min Rain = 0
KSM2 250008Z 11006KT 13/M05 A301 RMK A01 T01331051  RH  027%=      5-min Rain = 0
KSM2 250009Z 12005KT 13/M05 A301 RMK A01 T01321051  RH  028%=      5-min Rain = 0
KSM2 250010Z 11006KT 13/M05 A301 RMK A01 T01331050  RH  028%=      5-min Rain = 0
KSM2 250011Z 11007KT 13/M05 A3011 RMK A01 T01331050  RH  028%=      5-min Rain = 0
KSM2 250012Z 11007KT 13/M05 A3011 RMK A01 T01331051  RH  028%=      5-min Rain = 0
KSM2 250013Z 11006KT 13/M05 A3011 RMK A01 T01331051  RH  028%=      5-min Rain = 0
KSM2 250014Z 12007KT 13/M05 A3011 RMK A01 T01321051  RH  028%=      5-min Rain = 0
KSM2 250015Z 11007KT 13/M05 A3011 RMK A01 T01311051  RH  028%=      5-min Rain = 0
KSM2 250016Z 12006KT 13/M05 A3011 RMK A01 T01311051  RH  028%=      5-min Rain = 0
KSM2 250017Z 11006KT 13/M05 A3011 RMK A01 T01291051  RH  028%=      5-min Rain = 0
KSM2 250018Z 11007KT 13/M05 A3011 RMK A01 T01291051  RH  028%=      5-min Rain = 0
KSM2 250019Z 11006KT 13/M05 A3011 RMK A01 T01281051  RH  028%=      5-min Rain = 0
KSM2 250020Z 10006KT 13/M05 A3011 RMK A01 T01281051  RH  028%=      5-min Rain = 0
KSM2 250021Z 11006KT 13/M05 A3011 RMK A01 T01261051  RH  029%=      5-min Rain = 0
KSM2 250022Z 11007KT 13/M05 A3011 RMK A01 T01251052  RH  029%=      5-min Rain = 0
KSM2 250023Z 11007KT 13/M05 A3011 RMK A01 T01251051  RH  029%=      5-min Rain = 0
KSM2 250024Z 11007KT 13/M05 A3011 RMK A01 T01251052  RH  029%=      5-min Rain = 0
KSM2 250025Z 11006KT 13/M05 A3011 RMK A01 T01251051  RH  029%=      5-min Rain = 0
KSM2 250026Z 10006KT 12/M05 A3011 RMK A01 T01241052  RH  029%=      5-min Rain = 0
KSM2 250027Z 10007KT 12/M05 A3011 RMK A01 T01241051  RH  029%=      5-min Rain = 0
KSM2 250028Z 10008KT 12/M05 A3011 RMK A01 T01231052  RH  029%=      5-min Rain = 0
KSM2 250029Z 10009KT 12/M05 A3011 RMK A01 T01221052  RH  029%=      5-min Rain = 0
KSM2 250030Z 10009KT 12/M05 A3011 RMK A01 T01221052  RH  029%=      5-min Rain = 0
KSM2 250031Z 10008KT 12/M05 A3011 RMK A01 T01211052  RH  029%=      5-min Rain = 0
KSM2 250032Z 10008KT 12/M05 A3011 RMK A01 T01211052  RH  030%=      5-min Rain = 0
KSM2 250033Z 10008KT 12/M05 A3011 RMK A01 T01201052  RH  030%=      5-min Rain = 0
KSM2 250034Z 10007KT 12/M05 A3011 RMK A01 T01201052  RH  030%=      5-min Rain = 0
KSM2 250035Z 10007KT 12/M05 A3011 RMK A01 T01181052  RH  030%=      5-min Rain = 0
KSM2 250036Z 10007KT 12/M05 A3011 RMK A01 T01161052  RH  030%=      5-min Rain = 0
KSM2 250037Z 10007KT 12/M05 A3011 RMK A01 T01161051  RH  031%=      5-min Rain = 0
KSM2 250038Z 10007KT 12/M05 A3011 RMK A01 T01151051  RH  031%=      5-min Rain = 0
KSM2 250039Z 10007KT 11/M05 A3011 RMK A01 T01141051  RH  031%=      5-min Rain = 0
KSM2 250040Z 10007KT 11/M05 A3011 RMK A01 T01131052  RH  031%=      5-min Rain = 0
KSM2 250041Z 10007KT 11/M05 A3011 RMK A01 T01121051  RH  031%=      5-min Rain = 0
KSM2 250042Z 10006KT 11/M05 A3011 RMK A01 T01111052  RH  032%=      5-min Rain = 0
KSM2 250043Z 09006KT 11/M05 A3011 RMK A01 T01091053  RH  032%=      5-min Rain = 0
KSM2 250044Z 09006KT 11/M05 A3011 RMK A01 T01081054  RH  032%=      5-min Rain = 0
KSM2 250045Z 09007KT 11/M05 A3011 RMK A01 T01071054  RH  032%=      5-min Rain = 0
KSM2 250046Z 09007KT 11/M06 A3011 RMK A01 T01061055  RH  032%=      5-min Rain = 0
KSM2 250047Z 09007KT 11/M06 A3011 RMK A01 T01051055  RH  032%=      5-min Rain = 0
KSM2 250048Z 09007KT 10/M06 A3011 RMK A01 T01041055  RH  032%=      5-min Rain = 0
KSM2 250049Z 09007KT 10/M06 A3012 RMK A01 T01041055  RH  032%=      5-min Rain = 0
KSM2 250050Z 09007KT 10/M06 A3012 RMK A01 T01031055  RH  033%=      5-min Rain = 0
KSM2 250051Z 09008KT 10/M05 A3012 RMK A01 T01031054  RH  033%=      5-min Rain = 0
KSM2 250052Z 09008KT 10/M05 A3012 RMK A01 T01031054  RH  033%=      5-min Rain = 0
KSM2 250053Z 09008KT 10/M05 A3012 RMK A01 T01041053  RH  033%=      5-min Rain = 0
KSM2 250054Z 09008KT 11/M05 A3012 RMK A01 T01051053  RH  032%=      5-min Rain = 0
KSM2 250055Z 09008KT 11/M05 A3012 RMK A01 T01051054  RH  032%=      5-min Rain = 0
KSM2 250056Z 09008KT 11/M05 A3012 RMK A01 T01051054  RH  032%=      5-min Rain = 0
KSM2 250057Z 09008KT 10/M05 A3012 RMK A01 T01041054  RH  033%=      5-min Rain = 0
KSM2 250058Z 09007KT 10/M05 A3012 RMK A01 T01021054  RH  033%=      5-min Rain = 0
KSM2 250059Z 09007KT 10/M05 A3012 RMK A01 T01011054  RH  033%=      5-min Rain = 0
KSM2 250100Z 09008KT 10/M06 A3012 RMK A01 T00991055  RH  033%=      5-min Rain = 0
KSM2 250101Z 09007KT 10/M05 A3012 RMK A01 T00991054  RH  034%=      5-min Rain = 0
KSM2 250102Z 09008KT 10/M05 A3012 RMK A01 T00991054  RH  034%=      5-min Rain = 0
KSM2 250103Z 09007KT 10/M05 A3012 RMK A01 T00981054  RH  034%=      5-min Rain = 0
KSM2 250104Z 09007KT 10/M05 A3012 RMK A01 T00971054  RH  034%=      5-min Rain = 0
KSM2 250105Z 09007KT 10/M05 A3013 RMK A01 T00961054  RH  034%=      5-min Rain = 0
KSM2 250106Z 09007KT 10/M05 A3013 RMK A01 T00951054  RH  034%=      5-min Rain = 0
KSM2 250107Z 09008KT 10/M05 A3013 RMK A01 T00951054  RH  034%=      5-min Rain = 0
KSM2 250108Z 09008KT 10/M05 A3013 RMK A01 T00951054  RH  034%=      5-min Rain = 0
KSM2 250109Z 09008KT 10/M05 A3013 RMK A01 T00961054  RH  034%=      5-min Rain = 0
KSM2 250110Z 09008KT 09/M06 A3013 RMK A01 T00941055  RH  034%=      5-min Rain = 0
KSM2 250111Z 09007KT 09/M06 A3013 RMK A01 T00941055  RH  034%=      5-min Rain = 0
KSM2 250112Z 09008KT 09/M06 A3013 RMK A01 T00931055  RH  035%=      5-min Rain = 0
KSM2 250113Z 09008KT 09/M06 A3013 RMK A01 T00921055  RH  035%=      5-min Rain = 0
KSM2 250114Z 09008KT 09/M06 A3013 RMK A01 T00921055  RH  035%=      5-min Rain = 0
KSM2 250115Z 09008KT 09/M06 A3013 RMK A01 T00921055  RH  035%=      5-min Rain = 0
KSM2 250116Z 09008KT 09/M06 A3013 RMK A01 T00911055  RH  035%=      5-min Rain = 0
KSM2 250117Z 09008KT 09/M06 A3013 RMK A01 T00911055  RH  035%=      5-min Rain = 0
KSM2 250118Z 09008KT 09/M06 A3013 RMK A01 T00901056  RH  035%=      5-min Rain = 0
KSM2 250119Z 09008KT 09/M06 A3013 RMK A01 T00891056  RH  036%=      5-min Rain = 0
KSM2 250120Z 09008KT 09/M06 A3013 RMK A01 T00891055  RH  036%=      5-min Rain = 0
KSM2 250121Z 09008KT 09/M05 A3013 RMK A01 T00901054  RH  036%=      5-min Rain = 0
KSM2 250122Z 09008KT 09/M05 A3013 RMK A01 T00911054  RH  035%=      5-min Rain = 0
KSM2 250123Z 09007KT 09/M05 A3013 RMK A01 T00911054  RH  035%=      5-min Rain = 0
KSM2 250124Z 09007KT 09/M06 A3013 RMK A01 T00911055  RH  035%=      5-min Rain = 0
KSM2 250125Z 09007KT 09/M06 A3013 RMK A01 T00891055  RH  036%=      5-min Rain = 0
KSM2 250126Z 09007KT 09/M06 A3013 RMK A01 T00881055  RH  036%=      5-min Rain = 0
KSM2 250127Z 09007KT 09/M06 A3014 RMK A01 T00871055  RH  036%=      5-min Rain = 0
KSM2 250128Z 08007KT 09/M06 A3014 RMK A01 T00871055  RH  036%=      5-min Rain = 0
KSM2 250129Z 08007KT 09/M06 A3014 RMK A01 T00861056  RH  036%=      5-min Rain = 0
KSM2 250130Z 08007KT 08/M06 A3014 RMK A01 T00841057  RH  036%=      5-min Rain = 0
KSM2 250131Z 08007KT 08/M06 A3014 RMK A01 T00821059  RH  036%=      5-min Rain = 0
KSM2 250132Z 08008KT 08/M06 A3013 RMK A01 T00801060  RH  036%=      5-min Rain = 0
KSM2 250133Z 08007KT 08/M06 A3013 RMK A01 T00791059  RH  037%=      5-min Rain = 0
KSM2 250134Z 08007KT 08/M06 A3013 RMK A01 T00771059  RH  037%=      5-min Rain = 0
KSM2 250135Z 08007KT 08/M06 A3013 RMK A01 T00761059  RH  038%=      5-min Rain = 0
KSM2 250136Z 08007KT 08/M06 A3014 RMK A01 T00761059  RH  038%=      5-min Rain = 0
KSM2 250137Z 08007KT 07/M06 A3014 RMK A01 T00741060  RH  038%=      5-min Rain = 0
KSM2 250138Z 08007KT 07/M06 A3014 RMK A01 T00731060  RH  038%=      5-min Rain = 0
KSM2 250139Z 08008KT 07/M06 A3014 RMK A01 T00721059  RH  039%=      5-min Rain = 0
KSM2 250140Z 08008KT 07/M06 A3014 RMK A01 T00721059  RH  039%=      5-min Rain = 0
KSM2 250141Z 08008KT 07/M06 A3014 RMK A01 T00721058  RH  039%=      5-min Rain = 0
KSM2 250142Z 08007KT 07/M06 A3014 RMK A01 T00711058  RH  039%=      5-min Rain = 0
KSM2 250143Z 08007KT 07/M06 A3014 RMK A01 T00711059  RH  039%=      5-min Rain = 0
KSM2 250144Z 08007KT 07/M06 A3014 RMK A01 T00701059  RH  039%=      5-min Rain = 0
KSM2 250145Z 08007KT 07/M06 A3014 RMK A01 T00701059  RH  039%=      5-min Rain = 0
KSM2 250146Z 08007KT 07/M06 A3014 RMK A01 T00691059  RH  039%=      5-min Rain = 0
KSM2 250147Z 08007KT 07/M06 A3014 RMK A01 T00691059  RH  040%=      5-min Rain = 0
KSM2 250148Z 08007KT 07/M06 A3014 RMK A01 T00691059  RH  040%=      5-min Rain = 0
KSM2 250149Z 08007KT 07/M06 A3014 RMK A01 T00691059  RH  040%=      5-min Rain = 0
KSM2 250150Z 09008KT 07/M06 A3014 RMK A01 T00691059  RH  040%=      5-min Rain = 0
KSM2 250151Z 08008KT 07/M06 A3014 RMK A01 T00691058  RH  040%=      5-min Rain = 0
KSM2 250152Z 08007KT 07/M06 A3014 RMK A01 T00701058  RH  040%=      5-min Rain = 0
KSM2 250153Z 08007KT 07/M06 A3014 RMK A01 T00691058  RH  040%=      5-min Rain = 0
KSM2 250154Z 08007KT 07/M06 A3014 RMK A01 T00681059  RH  040%=      5-min Rain = 0
KSM2 250155Z 08007KT 07/M06 A3014 RMK A01 T00681059  RH  040%=      5-min Rain = 0
KSM2 250156Z 08008KT 07/M06 A3014 RMK A01 T00681059  RH  040%=      5-min Rain = 0
KSM2 250157Z 08007KT 07/M06 A3014 RMK A01 T00681059  RH  040%=      5-min Rain = 0
KSM2 250158Z 08007KT 07/M06 A3014 RMK A01 T00681059  RH  040%=      5-min Rain = 0
KSM2 250159Z 08007KT 07/M06 A3014 RMK A01 T00681059  RH  040%=      5-min Rain = 0
KSM2 250200Z 08008KT 07/M06 A3014 RMK A01 T00671059  RH  040%=      5-min Rain = 0
KSM2 250201Z 08008KT 07/M06 A3014 RMK A01 T00651059  RH  041%=      5-min Rain = 0
KSM2 250202Z 08008KT 07/M06 A3014 RMK A01 T00651059  RH  041%=      5-min Rain = 0
KSM2 250203Z 08008KT 07/M06 A3014 RMK A01 T00651058  RH  041%=      5-min Rain = 0
KSM2 250204Z 08008KT 07/M06 A3014 RMK A01 T00651058  RH  041%=      5-min Rain = 0
KSM2 250205Z 08008KT 06/M06 A3014 RMK A01 T00641058  RH  041%=      5-min Rain = 0
KSM2 250206Z 08008KT 07/M06 A3015 RMK A01 T00651058  RH  041%=      5-min Rain = 0
KSM2 250207Z 08008KT 06/M06 A3015 RMK A01 T00641058  RH  041%=      5-min Rain = 0
KSM2 250208Z 08008KT 06/M06 A3014 RMK A01 T00641058  RH  041%=      5-min Rain = 0
KSM2 250209Z 08008KT 07/M06 A3014 RMK A01 T00651057  RH  041%=      5-min Rain = 0
KSM2 250210Z 08008KT 07/M06 A3014 RMK A01 T00651057  RH  041%=      5-min Rain = 0
KSM2 250211Z 08008KT 07/M06 A3014 RMK A01 T00651057  RH  041%=      5-min Rain = 0
KSM2 250212Z 08008KT 07/M06 A3014 RMK A01 T00651058  RH  041%=      5-min Rain = 0
KSM2 250213Z 08008KT 07/M06 A3014 RMK A01 T00651057  RH  041%=      5-min Rain = 0
KSM2 250214Z 08008KT 07/M06 A3014 RMK A01 T00651057  RH  041%=      5-min Rain = 0
KSM2 250215Z 08008KT 07/M06 A3014 RMK A01 T00651057  RH  041%=      5-min Rain = 0
KSM2 250216Z 08008KT 07/M06 A3014 RMK A01 T00651057  RH  041%=      5-min Rain = 0
KSM2 250217Z 08008KT 07/M06 A3014 RMK A01 T00651057  RH  041%=      5-min Rain = 0
KSM2 250218Z 08008KT 07/M06 A3014 RMK A01 T00651057  RH  041%=      5-min Rain = 0
KSM2 250219Z 08008KT 07/M06 A3015 RMK A01 T00651056  RH  042%=      5-min Rain = 0
KSM2 250220Z 09008KT 07/M06 A3015 RMK A01 T00651057  RH  041%=      5-min Rain = 0
KSM2 250221Z 09008KT 07/M06 A3015 RMK A01 T00661056  RH  041%=      5-min Rain = 0
KSM2 250222Z 09009KT 07/M06 A3015 RMK A01 T00661056  RH  041%=      5-min Rain = 0
KSM2 250223Z 09009KT 07/M06 A3015 RMK A01 T00671056  RH  041%=      5-min Rain = 0
KSM2 250224Z 09009KT 07/M06 A3015 RMK A01 T00671055  RH  041%=      5-min Rain = 0
KSM2 250225Z 08009KT 07/M05 A3015 RMK A01 T00671054  RH  042%=      5-min Rain = 0
KSM2 250226Z 09009KT 07/M05 A3015 RMK A01 T00681054  RH  041%=      5-min Rain = 0
KSM2 250227Z 08010KT 07/M05 A3015 RMK A01 T00701053  RH  041%=      5-min Rain = 0
KSM2 250228Z 08010KT 07/M05 A3015 RMK A01 T00711053  RH  041%=      5-min Rain = 0
KSM2 250229Z 08010KT 07/M05 A3015 RMK A01 T00711053  RH  041%=      5-min Rain = 0
KSM2 250230Z 08010KT 07/M05 A3015 RMK A01 T00731053  RH  041%=      5-min Rain = 0
KSM2 250231Z 08009KT 07/M05 A3015 RMK A01 T00741052  RH  040%=      5-min Rain = 0
KSM2 250232Z 08009KT 08/M05 A3015 RMK A01 T00751052  RH  040%=      5-min Rain = 0
KSM2 250233Z 07007KT 08/M05 A3015 RMK A01 T00751052  RH  040%=      5-min Rain = 0
KSM2 250234Z 06007KT 07/M05 A3015 RMK A01 T00731053  RH  040%=      5-min Rain = 0
KSM2 250235Z 06007KT 07/M06 A3015 RMK A01 T00701055  RH  041%=      5-min Rain = 0
KSM2 250236Z 07008KT 07/M06 A3015 RMK A01 T00671055  RH  041%=      5-min Rain = 0
KSM2 250237Z 07007KT 07/M06 A3015 RMK A01 T00651055  RH  042%=      5-min Rain = 0
KSM2 250238Z 07008KT 06/M06 A3015 RMK A01 T00621055  RH  043%=      5-min Rain = 0
KSM2 250239Z 07008KT 06/M06 A3015 RMK A01 T00601055  RH  043%=      5-min Rain = 0
KSM2 250240Z 07008KT 06/M06 A3015 RMK A01 T00591055  RH  044%=      5-min Rain = 0
KSM2 250241Z 07008KT 06/M05 A3015 RMK A01 T00591054  RH  044%=      5-min Rain = 0
KSM2 250242Z 07008KT 06/M05 A3015 RMK A01 T00591053  RH  044%=      5-min Rain = 0
KSM2 250243Z 07008KT 06/M05 A3015 RMK A01 T00591053  RH  044%=      5-min Rain = 0
KSM2 250244Z 07008KT 06/M05 A3015 RMK A01 T00591052  RH  045%=      5-min Rain = 0
KSM2 250245Z 07008KT 06/M05 A3015 RMK A01 T00591052  RH  045%=      5-min Rain = 0
KSM2 250246Z 07007KT 06/M05 A3015 RMK A01 T00591052  RH  044%=      5-min Rain = 0
KSM2 250247Z 07008KT 06/M05 A3015 RMK A01 T00591052  RH  045%=      5-min Rain = 0
KSM2 250248Z 07008KT 06/M05 A3015 RMK A01 T00591052  RH  045%=      5-min Rain = 0
KSM2 250249Z 08008KT 06/M05 A3015 RMK A01 T00591052  RH  045%=      5-min Rain = 0
KSM2 250250Z 08008KT 06/M05 A3015 RMK A01 T00591052  RH  045%=      5-min Rain = 0
KSM2 250251Z 07009KT 06/M05 A3015 RMK A01 T00591052  RH  045%=      5-min Rain = 0
KSM2 250252Z 07008KT 06/M05 A3015 RMK A01 T00591052  RH  045%=      5-min Rain = 0
KSM2 250253Z 07008KT 06/M05 A3015 RMK A01 T00581052  RH  045%=      5-min Rain = 0
KSM2 250254Z 08009KT 06/M05 A3015 RMK A01 T00581052  RH  045%=      5-min Rain = 0
KSM2 250255Z 08008KT 06/M05 A3015 RMK A01 T00581052  RH  045%=      5-min Rain = 0
KSM2 250256Z 07009KT 06/M05 A3015 RMK A01 T00581052  RH  045%=      5-min Rain = 0
KSM2 250257Z 07009KT 06/M05 A3015 RMK A01 T00581052  RH  045%=      5-min Rain = 0
KSM2 250258Z 08009KT 06/M05 A3015 RMK A01 T00581052  RH  045%=      5-min Rain = 0
KSM2 250259Z 07009KT 06/M05 A3015 RMK A01 T00581052  RH  045%=      5-min Rain = 0
KSM2 250300Z 08009KT 06/M05 A3015 RMK A01 T00581052  RH  045%=      5-min Rain = 0
KSM2 250301Z 07009KT 06/M05 A3015 RMK A01 T00581052  RH  045%=      5-min Rain = 0
KSM2 250302Z 08009KT 06/M05 A3015 RMK A01 T00581052  RH  045%=      5-min Rain = 0
KSM2 250303Z 08009KT 06/M05 A3015 RMK A01 T00581051  RH  045%=      5-min Rain = 0
KSM2 250304Z 08008KT 06/M05 A3015 RMK A01 T00581051  RH  045%=      5-min Rain = 0
KSM2 250305Z 08008KT 06/M05 A3015 RMK A01 T00581051  RH  045%=      5-min Rain = 0
KSM2 250306Z 08009KT 06/M05 A3015 RMK A01 T00581051  RH  045%=      5-min Rain = 0
KSM2 250307Z 08009KT 06/M05 A3015 RMK A01 T00581051  RH  045%=      5-min Rain = 0
KSM2 250308Z 08010KT 06/M05 A3015 RMK A01 T00581051  RH  045%=      5-min Rain = 0
KSM2 250309Z 08010KT 06/M05 A3015 RMK A01 T00581051  RH  045%=      5-min Rain = 0
KSM2 250310Z 08010KT 06/M05 A3015 RMK A01 T00591051  RH  045%=      5-min Rain = 0
KSM2 250311Z 08010KT 06/M05 A3015 RMK A01 T00591051  RH  045%=      5-min Rain = 0
KSM2 250312Z 08010KT 06/M05 A3015 RMK A01 T00601051  RH  045%=      5-min Rain = 0
KSM2 250313Z 08010KT 06/M05 A3015 RMK A01 T00601051  RH  045%=      5-min Rain = 0
KSM2 250314Z 08011KT 06/M05 A3015 RMK A01 T00601051  RH  045%=      5-min Rain = 0
KSM2 250315Z 08010KT 06/M05 A3015 RMK A01 T00611051  RH  045%=      5-min Rain = 0
KSM2 250316Z 08010KT 06/M05 A3015 RMK A01 T00611051  RH  044%=      5-min Rain = 0
KSM2 250317Z 08010KT 06/M05 A3015 RMK A01 T00611051  RH  044%=      5-min Rain = 0
KSM2 250318Z 08010KT 06/M05 A3015 RMK A01 T00611051  RH  044%=      5-min Rain = 0
KSM2 250319Z 08010KT 06/M05 A3015 RMK A01 T00611052  RH  044%=      5-min Rain = 0
KSM2 250320Z 08010KT 06/M05 A3015 RMK A01 T00621051  RH  044%=      5-min Rain = 0
KSM2 250321Z 08009KT 06/M05 A3015 RMK A01 T00621052  RH  044%=      5-min Rain = 0
KSM2 250322Z 08009KT 06/M05 A3015 RMK A01 T00611051  RH  044%=      5-min Rain = 0
KSM2 250323Z 08010KT 06/M05 A3015 RMK A01 T00601052  RH  045%=      5-min Rain = 0
KSM2 250324Z 08010KT 06/M05 A3015 RMK A01 T00601052  RH  045%=      5-min Rain = 0
KSM2 250325Z 08010KT 06/M05 A3015 RMK A01 T00601051  RH  045%=      5-min Rain = 0
KSM2 250326Z 08009KT 06/M05 A3015 RMK A01 T00601052  RH  045%=      5-min Rain = 0
KSM2 250327Z 08009KT 06/M05 A3015 RMK A01 T00591052  RH  045%=      5-min Rain = 0
KSM2 250328Z 07009KT 06/M05 A3015 RMK A01 T00591051  RH  045%=      5-min Rain = 0
KSM2 250329Z 07008KT 06/M05 A3015 RMK A01 T00591052  RH  045%=      5-min Rain = 0
KSM2 250330Z 07009KT 06/M05 A3015 RMK A01 T00571052  RH  045%=      5-min Rain = 0
KSM2 250331Z 07009KT 06/M05 A3015 RMK A01 T00571053  RH  045%=      5-min Rain = 0
KSM2 250332Z 07009KT 06/M05 A3016 RMK A01 T00561053  RH  046%=      5-min Rain = 0
KSM2 250333Z 07009KT 06/M05 A3016 RMK A01 T00551053  RH  046%=      5-min Rain = 0
KSM2 250334Z 07009KT 06/M05 A3016 RMK A01 T00551053  RH  046%=      5-min Rain = 0
KSM2 250335Z 07009KT 05/M05 A3016 RMK A01 T00541053  RH  046%=      5-min Rain = 0
KSM2 250336Z 07009KT 05/M05 A3016 RMK A01 T00541053  RH  046%=      5-min Rain = 0
KSM2 250337Z 07009KT 05/M05 A3016 RMK A01 T00541052  RH  046%=      5-min Rain = 0
KSM2 250338Z 07010KT 05/M05 A3016 RMK A01 T00541052  RH  046%=      5-min Rain = 0
KSM2 250339Z 07009KT 05/M05 A3016 RMK A01 T00541053  RH  046%=      5-min Rain = 0
KSM2 250340Z 07009KT 06/M05 A3016 RMK A01 T00551052  RH  046%=      5-min Rain = 0
KSM2 250341Z 07009KT 05/M05 A3016 RMK A01 T00541052  RH  046%=      5-min Rain = 0
KSM2 250342Z 07009KT 05/M05 A3016 RMK A01 T00541053  RH  046%=      5-min Rain = 0
KSM2 250343Z 07009KT 05/M05 A3016 RMK A01 T00541053  RH  046%=      5-min Rain = 0
KSM2 250344Z 07009KT 05/M05 A3016 RMK A01 T00541053  RH  046%=      5-min Rain = 0
KSM2 250345Z 07010KT 05/M05 A3016 RMK A01 T00541053  RH  046%=      5-min Rain = 0
KSM2 250346Z 07010KT 05/M05 A3016 RMK A01 T00541053  RH  046%=      5-min Rain = 0
KSM2 250347Z 07010KT 05/M05 A3016 RMK A01 T00541052  RH  046%=      5-min Rain = 0
KSM2 250348Z 07010KT 05/M05 A3016 RMK A01 T00541053  RH  046%=      5-min Rain = 0
KSM2 250349Z 08010KT 06/M05 A3016 RMK A01 T00551053  RH  046%=      5-min Rain = 0
KSM2 250350Z 07010KT 06/M05 A3016 RMK A01 T00551052  RH  046%=      5-min Rain = 0
KSM2 250351Z 08010KT 06/M05 A3016 RMK A01 T00551053  RH  046%=      5-min Rain = 0
KSM2 250352Z 07010KT 06/M05 A3016 RMK A01 T00551053  RH  046%=      5-min Rain = 0
KSM2 250353Z 07010KT 06/M05 A3016 RMK A01 T00551053  RH  046%=      5-min Rain = 0
KSM2 250354Z 07010KT 06/M05 A3016 RMK A01 T00561053  RH  045%=      5-min Rain = 0
KSM2 250355Z 07010KT 06/M05 A3016 RMK A01 T00561053  RH  045%=      5-min Rain = 0
KSM2 250356Z 07010KT 06/M05 A3016 RMK A01 T00561053  RH  045%=      5-min Rain = 0
KSM2 250357Z 07010KT 06/M05 A3016 RMK A01 T00561053  RH  046%=      5-min Rain = 0
KSM2 250358Z 07011KT 06/M05 A3016 RMK A01 T00561053  RH  045%=      5-min Rain = 0
KSM2 250359Z 07010KT 06/M05 A3016 RMK A01 T00561053  RH  045%=      5-min Rain = 0
KSM2 250400Z 07010KT 06/M05 A3016 RMK A01 T00561053  RH  045%=      5-min Rain = 0
KSM2 250401Z 08010KT 06/M05 A3016 RMK A01 T00561053  RH  045%=      5-min Rain = 0
KSM2 250402Z 08010KT 06/M05 A3017 RMK A01 T00561053  RH  045%=      5-min Rain = 0
KSM2 250403Z 07010KT 06/M05 A3017 RMK A01 T00561054  RH  045%=      5-min Rain = 0
KSM2 250404Z 08010KT 06/M05 A3017 RMK A01 T00561054  RH  045%=      5-min Rain = 0
KSM2 250405Z 08010KT 06/M05 A3017 RMK A01 T00561054  RH  045%=      5-min Rain = 0
KSM2 250406Z 07010KT 06/M05 A3017 RMK A01 T00561054  RH  045%=      5-min Rain = 0
KSM2 250407Z 08009KT 06/M05 A3017 RMK A01 T00561054  RH  045%=      5-min Rain = 0
KSM2 250408Z 08010KT 06/M05 A3017 RMK A01 T00561054  RH  045%=      5-min Rain = 0
KSM2 250409Z 08010KT 06/M06 A3017 RMK A01 T00551055  RH  045%=      5-min Rain = 0
KSM2 250410Z 08011KT 06/M06 A3017 RMK A01 T00561055  RH  045%=      5-min Rain = 0
KSM2 250411Z 08010KT 06/M06 A3017 RMK A01 T00551055  RH  045%=      5-min Rain = 0
KSM2 250412Z 08010KT 06/M06 A3017 RMK A01 T00551056  RH  045%=      5-min Rain = 0
KSM2 250413Z 08010KT 05/M06 A3017 RMK A01 T00541056  RH  045%=      5-min Rain = 0
KSM2 250414Z 08010KT 05/M06 A3017 RMK A01 T00541056  RH  045%=      5-min Rain = 0
KSM2 250415Z 08010KT 06/M06 A3017 RMK A01 T00551056  RH  045%=      5-min Rain = 0
KSM2 250416Z 08009KT 06/M06 A3017 RMK A01 T00551057  RH  044%=      5-min Rain = 0
KSM2 250417Z 08009KT 06/M06 A3017 RMK A01 T00551057  RH  044%=      5-min Rain = 0
KSM2 250418Z 08009KT 06/M06 A3017 RMK A01 T00551057  RH  044%=      5-min Rain = 0
KSM2 250419Z 08010KT 05/M06 A3017 RMK A01 T00541057  RH  044%=      5-min Rain = 0
KSM2 250420Z 08010KT 05/M06 A3017 RMK A01 T00541057  RH  044%=      5-min Rain = 0
KSM2 250421Z 08009KT 06/M06 A3017 RMK A01 T00551057  RH  044%=      5-min Rain = 0
KSM2 250422Z 08009KT 05/M06 A3017 RMK A01 T00541058  RH  044%=      5-min Rain = 0
KSM2 250423Z 08010KT 05/M06 A3017 RMK A01 T00541058  RH  044%=      5-min Rain = 0
KSM2 250424Z 08010KT 05/M06 A3017 RMK A01 T00541058  RH  044%=      5-min Rain = 0
KSM2 250425Z 08010KT 06/M06 A3017 RMK A01 T00551058  RH  044%=      5-min Rain = 0
KSM2 250426Z 08009KT 06/M06 A3017 RMK A01 T00551058  RH  044%=      5-min Rain = 0
KSM2 250427Z 08009KT 05/M06 A3017 RMK A01 T00541058  RH  044%=      5-min Rain = 0
KSM2 250428Z 08009KT 05/M06 A3017 RMK A01 T00531059  RH  044%=      5-min Rain = 0
KSM2 250429Z 08009KT 05/M06 A3017 RMK A01 T00531059  RH  044%=      5-min Rain = 0
KSM2 250430Z 08009KT 05/M06 A3017 RMK A01 T00531059  RH  044%=      5-min Rain = 0
KSM2 250431Z 08008KT 05/M06 A3017 RMK A01 T00521059  RH  044%=      5-min Rain = 0
KSM2 250432Z 09008KT 05/M06 A3017 RMK A01 T00521060  RH  044%=      5-min Rain = 0
KSM2 250433Z 09008KT 05/M06 A3017 RMK A01 T00511060  RH  045%=      5-min Rain = 0
KSM2 250434Z 09009KT 05/M06 A3018 RMK A01 T00501060  RH  045%=      5-min Rain = 0
KSM2 250435Z 09009KT 05/M06 A3018 RMK A01 T00501060  RH  045%=      5-min Rain = 0
KSM2 250436Z 09010KT 05/M06 A3018 RMK A01 T00521060  RH  044%=      5-min Rain = 0
KSM2 250437Z 09010KT 05/M06 A3018 RMK A01 T00531059  RH  044%=      5-min Rain = 0
KSM2 250438Z 09010KT 05/M06 A3018 RMK A01 T00531060  RH  044%=      5-min Rain = 0
KSM2 250439Z 09010KT 05/M06 A3018 RMK A01 T00541060  RH  044%=      5-min Rain = 0
KSM2 250440Z 09011KT 05/M06 A3018 RMK A01 T00531060  RH  044%=      5-min Rain = 0
KSM2 250441Z 09010KT 05/M06 A3018 RMK A01 T00541060  RH  044%=      5-min Rain = 0
KSM2 250442Z 09010KT 06/M06 A3018 RMK A01 T00551060  RH  043%=      5-min Rain = 0
KSM2 250443Z 09011KT 06/M06 A3018 RMK A01 T00561061  RH  043%=      5-min Rain = 0
KSM2 250444Z 09011KT 06/M06 A3018 RMK A01 T00571061  RH  042%=      5-min Rain = 0
KSM2 250445Z 09011KT 06/M06 A3018 RMK A01 T00581061  RH  042%=      5-min Rain = 0
KSM2 250446Z 09012KT 06/M06 A3018 RMK A01 T00591061  RH  042%=      5-min Rain = 0
KSM2 250447Z 10012KT 06/M06 A3018 RMK A01 T00601061  RH  042%=      5-min Rain = 0
KSM2 250448Z 10012KT 06/M06 A3018 RMK A01 T00611061  RH  041%=      5-min Rain = 0
KSM2 250449Z 09013KT 06/M06 A3018 RMK A01 T00621062  RH  041%=      5-min Rain = 0
KSM2 250450Z 09014KT 06/M06 A3018 RMK A01 T00631062  RH  040%=      5-min Rain = 0
KSM2 250451Z 09015KT 06/M06 A3018 RMK A01 T00631062  RH  040%=      5-min Rain = 0
KSM2 250452Z 09016KT 06/M06 A3017 RMK A01 T00641062  RH  040%=      5-min Rain = 0
KSM2 250453Z 09015KT 07/M06 A3017 RMK A01 T00651062  RH  040%=      5-min Rain = 0
KSM2 250454Z 09015KT 06/M06 A3017 RMK A01 T00641062  RH  040%=      5-min Rain = 0
KSM2 250455Z 09014KT 06/M06 A3017 RMK A01 T00641062  RH  040%=      5-min Rain = 0
KSM2 250456Z 09013KT 06/M06 A3017 RMK A01 T00641062  RH  040%=      5-min Rain = 0
KSM2 250457Z 10013KT 06/M06 A3017 RMK A01 T00641062  RH  040%=      5-min Rain = 0
KSM2 250458Z 10012KT 06/M06 A3017 RMK A01 T00631063  RH  040%=      5-min Rain = 0
KSM2 250459Z 10011KT 06/M06 A3017 RMK A01 T00621062  RH  041%=      5-min Rain = 0
KSM2 250500Z 10011KT 06/M06 A3018 RMK A01 T00611062  RH  041%=      5-min Rain = 0
KSM2 250501Z 10012KT 06/M06 A3018 RMK A01 T00611062  RH  041%=      5-min Rain = 0
KSM2 250502Z 10012KT 06/M06 A3018 RMK A01 T00611062  RH  041%=      5-min Rain = 0
KSM2 250503Z 10011KT 06/M06 A3018 RMK A01 T00601062  RH  041%=      5-min Rain = 0
KSM2 250504Z 10012KT 06/M06 A3018 RMK A01 T00601062  RH  041%=      5-min Rain = 0
KSM2 250505Z 09012KT 06/M06 A3018 RMK A01 T00601062  RH  041%=      5-min Rain = 0
KSM2 250506Z 09014KT 06/M06 A3018 RMK A01 T00601062  RH  041%=      5-min Rain = 0
KSM2 250507Z 09014KT 06/M06 A3018 RMK A01 T00601062  RH  041%=      5-min Rain = 0
KSM2 250508Z 09016KT 06/M06 A3018 RMK A01 T00601062  RH  041%=      5-min Rain = 0
KSM2 250509Z 09014KT 06/M06 A3018 RMK A01 T00611062  RH  041%=      5-min Rain = 0
KSM2 250510Z 09015KT 06/M06 A3018 RMK A01 T00611062  RH  041%=      5-min Rain = 0
KSM2 250511Z 09014KT 06/M06 A3018 RMK A01 T00611062  RH  041%=      5-min Rain = 0
KSM2 250512Z 09015KT 06/M06 A3018 RMK A01 T00611062  RH  041%=      5-min Rain = 0
KSM2 250513Z 09014KT 06/M06 A3018 RMK A01 T00611062  RH  041%=      5-min Rain = 0
KSM2 250514Z 09014KT 06/M06 A3018 RMK A01 T00611062  RH  041%=      5-min Rain = 0
KSM2 250515Z 09015KT 06/M06 A3018 RMK A01 T00601062  RH  041%=      5-min Rain = 0
KSM2 250516Z 09014KT 06/M06 A3018 RMK A01 T00601062  RH  041%=      5-min Rain = 0
KSM2 250517Z 10014KT 06/M06 A3018 RMK A01 T00601062  RH  041%=      5-min Rain = 0
KSM2 250518Z 09012KT 06/M06 A3018 RMK A01 T00601062  RH  041%=      5-min Rain = 0
KSM2 250519Z 10013KT 06/M06 A3018 RMK A01 T00581062  RH  042%=      5-min Rain = 0
KSM2 250520Z 10013KT 06/M06 A3018 RMK A01 T00571062  RH  042%=      5-min Rain = 0
KSM2 250521Z 09012KT 06/M06 A3018 RMK A01 T00571062  RH  042%=      5-min Rain = 0
KSM2 250522Z 10013KT 06/M06 A3018 RMK A01 T00561062  RH  042%=      5-min Rain = 0
KSM2 250523Z 09012KT 06/M06 A3018 RMK A01 T00561062  RH  042%=      5-min Rain = 0
KSM2 250524Z 09011KT 06/M06 A3018 RMK A01 T00561062  RH  042%=      5-min Rain = 0
KSM2 250525Z 09012KT 06/M06 A3018 RMK A01 T00551063  RH  042%=      5-min Rain = 0
KSM2 250526Z 09011KT 06/M06 A3018 RMK A01 T00551062  RH  043%=      5-min Rain = 0
KSM2 250527Z 09011KT 05/M06 A3018 RMK A01 T00541063  RH  043%=      5-min Rain = 0
KSM2 250528Z 10011KT 05/M06 A3018 RMK A01 T00531063  RH  043%=      5-min Rain = 0
KSM2 250529Z 09010KT 05/M06 A3018 RMK A01 T00521063  RH  043%=      5-min Rain = 0
KSM2 250530Z 09012KT 05/M06 A3018 RMK A01 T00511063  RH  044%=      5-min Rain = 0
KSM2 250531Z 09011KT 05/M06 A3018 RMK A01 T00511063  RH  044%=      5-min Rain = 0
KSM2 250532Z 09010KT 05/M06 A3018 RMK A01 T00511063  RH  044%=      5-min Rain = 0
KSM2 250533Z 09011KT 05/M06 A3018 RMK A01 T00511063  RH  044%=      5-min Rain = 0
KSM2 250534Z 09011KT 05/M06 A3018 RMK A01 T00501063  RH  044%=      5-min Rain = 0
KSM2 250535Z 10012KT 05/M06 A3018 RMK A01 T00501063  RH  044%=      5-min Rain = 0
KSM2 250536Z 09012KT 05/M06 A3018 RMK A01 T00511063  RH  044%=      5-min Rain = 0
KSM2 250537Z 10013KT 05/M06 A3018 RMK A01 T00511062  RH  044%=      5-min Rain = 0
KSM2 250538Z 09013KT 05/M06 A3018 RMK A01 T00521062  RH  043%=      5-min Rain = 0
KSM2 250539Z 10012KT 05/M06 A3018 RMK A01 T00531062  RH  043%=      5-min Rain = 0
KSM2 250540Z 09012KT 05/M06 A3018 RMK A01 T00521063  RH  043%=      5-min Rain = 0
KSM2 250541Z 09012KT 05/M06 A3018 RMK A01 T00521062  RH  043%=      5-min Rain = 0
KSM2 250542Z 09012KT 05/M06 A3018 RMK A01 T00531062  RH  043%=      5-min Rain = 0
KSM2 250543Z 10013KT 05/M06 A3018 RMK A01 T00531063  RH  043%=      5-min Rain = 0
KSM2 250544Z 10012KT 05/M06 A3018 RMK A01 T00521063  RH  043%=      5-min Rain = 0
KSM2 250545Z 09012KT 05/M06 A3018 RMK A01 T00521063  RH  043%=      5-min Rain = 0
KSM2 250546Z 09013KT 05/M06 A3018 RMK A01 T00511063  RH  044%=      5-min Rain = 0
KSM2 250547Z 09013KT 05/M06 A3018 RMK A01 T00511063  RH  044%=      5-min Rain = 0
KSM2 250548Z 10012KT 05/M06 A3018 RMK A01 T00501063  RH  044%=      5-min Rain = 0
KSM2 250549Z 10012KT 05/M06 A3018 RMK A01 T00511063  RH  044%=      5-min Rain = 0
KSM2 250550Z 09012KT 05/M06 A3018 RMK A01 T00511063  RH  044%=      5-min Rain = 0
KSM2 250551Z 09012KT 05/M06 A3018 RMK A01 T00501063  RH  044%=      5-min Rain = 0
KSM2 250552Z 09011KT 05/M06 A3018 RMK A01 T00511063  RH  044%=      5-min Rain = 0
KSM2 250553Z 10012KT 05/M06 A3018 RMK A01 T00501063  RH  044%=      5-min Rain = 0
KSM2 250554Z 10012KT 05/M06 A3018 RMK A01 T00501064  RH  044%=      5-min Rain = 0
KSM2 250555Z 10011KT 05/M06 A3018 RMK A01 T00501064  RH  044%=      5-min Rain = 0
KSM2 250556Z 10012KT 05/M06 A3018 RMK A01 T00491064  RH  044%=      5-min Rain = 0
KSM2 250557Z 09011KT 05/M06 A3018 RMK A01 T00501064  RH  044%=      5-min Rain = 0
KSM2 250558Z 09011KT 05/M06 A3018 RMK A01 T00491064  RH  044%=      5-min Rain = 0
KSM2 250559Z 10011KT 05/M06 A3017 RMK A01 T00481064  RH  044%=      5-min Rain = 0

Page generated in 0.0646 seconds.